<?xml version="1.0" encoding="UTF-8" standalone="no" ?>
<gpx xmlns="http://www.topografix.com/GPX/1/1" xmlns:xsi="http://www.w3.org/2001/XMLSchema-instance" xsi:schemaLocation="http://www.topografix.com/GPX/1/1 http://www.topografix.com/GPX/1/1/gpx.xsd" version="1.1" creator="VisuGPX - https://www.visugpx.com">
  <metadata>
    <name>VTT nocturne armaguidon</name>
    <desc><![CDATA[voicivoilalvoiallaaallalaaaaaaaaaa]]></desc>
  </metadata>
  <trk>
    <name><![CDATA[1 (2016-06-15 05:57:28)]]></name>
    <trkseg>
      <trkpt lat="43.61648" lon="7.04188">
        <ele>133</ele>
        <time>2016-06-15T04:57:28Z</time>
      </trkpt>
      <trkpt lat="43.61648" lon="7.04188">
        <ele>133</ele>
        <time>2016-06-15T04:57:33Z</time>
      </trkpt>
      <trkpt lat="43.61643" lon="7.04191">
        <ele>133</ele>
        <time>2016-06-15T04:57:38Z</time>
      </trkpt>
      <trkpt lat="43.61636" lon="7.04208">
        <ele>133</ele>
        <time>2016-06-15T04:57:43Z</time>
      </trkpt>
      <trkpt lat="43.61639" lon="7.04235">
        <ele>132</ele>
        <time>2016-06-15T04:57:48Z</time>
      </trkpt>
      <trkpt lat="43.61649" lon="7.04273">
        <ele>132</ele>
        <time>2016-06-15T04:57:53Z</time>
      </trkpt>
      <trkpt lat="43.61669" lon="7.04317">
        <ele>132</ele>
        <time>2016-06-15T04:57:58Z</time>
      </trkpt>
      <trkpt lat="43.61692" lon="7.04364">
        <ele>131</ele>
        <time>2016-06-15T04:58:03Z</time>
      </trkpt>
      <trkpt lat="43.61705" lon="7.04415">
        <ele>125</ele>
        <time>2016-06-15T04:58:08Z</time>
      </trkpt>
      <trkpt lat="43.61718" lon="7.0447">
        <ele>124</ele>
        <time>2016-06-15T04:58:13Z</time>
      </trkpt>
      <trkpt lat="43.61746" lon="7.0451">
        <ele>122</ele>
        <time>2016-06-15T04:58:18Z</time>
      </trkpt>
      <trkpt lat="43.61771" lon="7.04557">
        <ele>121</ele>
        <time>2016-06-15T04:58:23Z</time>
      </trkpt>
      <trkpt lat="43.61794" lon="7.04599">
        <ele>119</ele>
        <time>2016-06-15T04:58:28Z</time>
      </trkpt>
      <trkpt lat="43.61816" lon="7.04647">
        <ele>118</ele>
        <time>2016-06-15T04:58:33Z</time>
      </trkpt>
      <trkpt lat="43.61839" lon="7.04695">
        <ele>116</ele>
        <time>2016-06-15T04:58:38Z</time>
      </trkpt>
      <trkpt lat="43.61858" lon="7.04715">
        <ele>115</ele>
        <time>2016-06-15T04:58:43Z</time>
      </trkpt>
      <trkpt lat="43.61879" lon="7.04693">
        <ele>114</ele>
        <time>2016-06-15T04:58:48Z</time>
      </trkpt>
      <trkpt lat="43.61902" lon="7.04668">
        <ele>114</ele>
        <time>2016-06-15T04:58:53Z</time>
      </trkpt>
      <trkpt lat="43.61913" lon="7.04628">
        <ele>113</ele>
        <time>2016-06-15T04:58:58Z</time>
      </trkpt>
      <trkpt lat="43.61903" lon="7.04586">
        <ele>113</ele>
        <time>2016-06-15T04:59:03Z</time>
      </trkpt>
      <trkpt lat="43.61888" lon="7.0456">
        <ele>112</ele>
        <time>2016-06-15T04:59:08Z</time>
      </trkpt>
      <trkpt lat="43.61878" lon="7.04538">
        <ele>112</ele>
        <time>2016-06-15T04:59:13Z</time>
      </trkpt>
      <trkpt lat="43.61865" lon="7.04522">
        <ele>113</ele>
        <time>2016-06-15T04:59:18Z</time>
      </trkpt>
      <trkpt lat="43.6185" lon="7.04506">
        <ele>113</ele>
        <time>2016-06-15T04:59:23Z</time>
      </trkpt>
      <trkpt lat="43.61827" lon="7.04495">
        <ele>114</ele>
        <time>2016-06-15T04:59:28Z</time>
      </trkpt>
      <trkpt lat="43.61792" lon="7.04487">
        <ele>115</ele>
        <time>2016-06-15T04:59:33Z</time>
      </trkpt>
      <trkpt lat="43.6176" lon="7.04478">
        <ele>116</ele>
        <time>2016-06-15T04:59:38Z</time>
      </trkpt>
      <trkpt lat="43.61736" lon="7.04463">
        <ele>117</ele>
        <time>2016-06-15T04:59:43Z</time>
      </trkpt>
      <trkpt lat="43.61725" lon="7.04428">
        <ele>118</ele>
        <time>2016-06-15T04:59:48Z</time>
      </trkpt>
      <trkpt lat="43.61728" lon="7.04386">
        <ele>119</ele>
        <time>2016-06-15T04:59:53Z</time>
      </trkpt>
      <trkpt lat="43.61737" lon="7.0435">
        <ele>121</ele>
        <time>2016-06-15T04:59:58Z</time>
      </trkpt>
      <trkpt lat="43.61743" lon="7.04319">
        <ele>122</ele>
        <time>2016-06-15T05:00:03Z</time>
      </trkpt>
      <trkpt lat="43.61731" lon="7.04283">
        <ele>123</ele>
        <time>2016-06-15T05:00:08Z</time>
      </trkpt>
      <trkpt lat="43.61704" lon="7.04246">
        <ele>124</ele>
        <time>2016-06-15T05:00:13Z</time>
      </trkpt>
      <trkpt lat="43.61685" lon="7.04217">
        <ele>125</ele>
        <time>2016-06-15T05:00:18Z</time>
      </trkpt>
      <trkpt lat="43.61694" lon="7.04174">
        <ele>126</ele>
        <time>2016-06-15T05:00:23Z</time>
      </trkpt>
      <trkpt lat="43.61715" lon="7.04152">
        <ele>126</ele>
        <time>2016-06-15T05:00:28Z</time>
      </trkpt>
      <trkpt lat="43.61732" lon="7.04129">
        <ele>127</ele>
        <time>2016-06-15T05:00:33Z</time>
      </trkpt>
      <trkpt lat="43.61743" lon="7.04113">
        <ele>128</ele>
        <time>2016-06-15T05:00:38Z</time>
      </trkpt>
      <trkpt lat="43.61759" lon="7.04091">
        <ele>129</ele>
        <time>2016-06-15T05:00:43Z</time>
      </trkpt>
      <trkpt lat="43.61769" lon="7.04074">
        <ele>129</ele>
        <time>2016-06-15T05:00:48Z</time>
      </trkpt>
      <trkpt lat="43.61774" lon="7.04043">
        <ele>130</ele>
        <time>2016-06-15T05:00:53Z</time>
      </trkpt>
      <trkpt lat="43.61768" lon="7.04008">
        <ele>131</ele>
        <time>2016-06-15T05:00:58Z</time>
      </trkpt>
      <trkpt lat="43.61762" lon="7.03974">
        <ele>132</ele>
        <time>2016-06-15T05:01:03Z</time>
      </trkpt>
      <trkpt lat="43.61735" lon="7.03943">
        <ele>133</ele>
        <time>2016-06-15T05:01:08Z</time>
      </trkpt>
      <trkpt lat="43.61706" lon="7.03938">
        <ele>134</ele>
        <time>2016-06-15T05:01:13Z</time>
      </trkpt>
      <trkpt lat="43.61686" lon="7.03955">
        <ele>134</ele>
        <time>2016-06-15T05:01:18Z</time>
      </trkpt>
      <trkpt lat="43.61678" lon="7.03983">
        <ele>135</ele>
        <time>2016-06-15T05:01:23Z</time>
      </trkpt>
      <trkpt lat="43.61677" lon="7.04005">
        <ele>136</ele>
        <time>2016-06-15T05:01:28Z</time>
      </trkpt>
      <trkpt lat="43.61672" lon="7.04046">
        <ele>137</ele>
        <time>2016-06-15T05:01:33Z</time>
      </trkpt>
      <trkpt lat="43.61657" lon="7.0408">
        <ele>137</ele>
        <time>2016-06-15T05:01:38Z</time>
      </trkpt>
      <trkpt lat="43.61639" lon="7.04107">
        <ele>138</ele>
        <time>2016-06-15T05:01:43Z</time>
      </trkpt>
      <trkpt lat="43.61623" lon="7.04138">
        <ele>138</ele>
        <time>2016-06-15T05:01:48Z</time>
      </trkpt>
      <trkpt lat="43.61627" lon="7.04176">
        <ele>139</ele>
        <time>2016-06-15T05:01:53Z</time>
      </trkpt>
      <trkpt lat="43.61629" lon="7.04226">
        <ele>140</ele>
        <time>2016-06-15T05:01:58Z</time>
      </trkpt>
      <trkpt lat="43.61634" lon="7.04279">
        <ele>141</ele>
        <time>2016-06-15T05:02:03Z</time>
      </trkpt>
      <trkpt lat="43.61634" lon="7.04323">
        <ele>141</ele>
        <time>2016-06-15T05:02:08Z</time>
      </trkpt>
      <trkpt lat="43.61623" lon="7.04355">
        <ele>142</ele>
        <time>2016-06-15T05:02:13Z</time>
      </trkpt>
      <trkpt lat="43.6163" lon="7.04396">
        <ele>143</ele>
        <time>2016-06-15T05:02:18Z</time>
      </trkpt>
      <trkpt lat="43.6165" lon="7.04436">
        <ele>144</ele>
        <time>2016-06-15T05:02:23Z</time>
      </trkpt>
      <trkpt lat="43.61661" lon="7.04468">
        <ele>146</ele>
        <time>2016-06-15T05:02:28Z</time>
      </trkpt>
      <trkpt lat="43.61664" lon="7.04486">
        <ele>147</ele>
        <time>2016-06-15T05:02:33Z</time>
      </trkpt>
      <trkpt lat="43.61659" lon="7.04482">
        <ele>149</ele>
        <time>2016-06-15T05:02:38Z</time>
      </trkpt>
      <trkpt lat="43.61656" lon="7.04477">
        <ele>151</ele>
        <time>2016-06-15T05:02:43Z</time>
      </trkpt>
      <trkpt lat="43.61656" lon="7.0447">
        <ele>152</ele>
        <time>2016-06-15T05:02:48Z</time>
      </trkpt>
      <trkpt lat="43.61647" lon="7.04455">
        <ele>154</ele>
        <time>2016-06-15T05:02:53Z</time>
      </trkpt>
      <trkpt lat="43.61643" lon="7.04449">
        <ele>156</ele>
        <time>2016-06-15T05:02:58Z</time>
      </trkpt>
      <trkpt lat="43.61633" lon="7.04444">
        <ele>158</ele>
        <time>2016-06-15T05:03:03Z</time>
      </trkpt>
      <trkpt lat="43.61624" lon="7.04438">
        <ele>160</ele>
        <time>2016-06-15T05:03:08Z</time>
      </trkpt>
      <trkpt lat="43.61619" lon="7.04436">
        <ele>162</ele>
        <time>2016-06-15T05:03:13Z</time>
      </trkpt>
      <trkpt lat="43.61614" lon="7.04435">
        <ele>164</ele>
        <time>2016-06-15T05:03:18Z</time>
      </trkpt>
      <trkpt lat="43.61609" lon="7.04435">
        <ele>166</ele>
        <time>2016-06-15T05:03:23Z</time>
      </trkpt>
      <trkpt lat="43.61604" lon="7.04435">
        <ele>168</ele>
        <time>2016-06-15T05:03:28Z</time>
      </trkpt>
      <trkpt lat="43.61604" lon="7.04435">
        <ele>169</ele>
        <time>2016-06-15T05:03:33Z</time>
      </trkpt>
      <trkpt lat="43.61599" lon="7.04433">
        <ele>170</ele>
        <time>2016-06-15T05:03:38Z</time>
      </trkpt>
      <trkpt lat="43.61597" lon="7.04427">
        <ele>171</ele>
        <time>2016-06-15T05:03:43Z</time>
      </trkpt>
      <trkpt lat="43.61597" lon="7.04427">
        <ele>172</ele>
        <time>2016-06-15T05:03:48Z</time>
      </trkpt>
      <trkpt lat="43.61593" lon="7.04414">
        <ele>172</ele>
        <time>2016-06-15T05:03:53Z</time>
      </trkpt>
      <trkpt lat="43.61585" lon="7.04399">
        <ele>173</ele>
        <time>2016-06-15T05:03:58Z</time>
      </trkpt>
      <trkpt lat="43.61566" lon="7.04378">
        <ele>173</ele>
        <time>2016-06-15T05:04:03Z</time>
      </trkpt>
      <trkpt lat="43.61543" lon="7.04373">
        <ele>173</ele>
        <time>2016-06-15T05:04:08Z</time>
      </trkpt>
      <trkpt lat="43.61529" lon="7.04375">
        <ele>173</ele>
        <time>2016-06-15T05:04:13Z</time>
      </trkpt>
      <trkpt lat="43.61503" lon="7.04386">
        <ele>174</ele>
        <time>2016-06-15T05:04:18Z</time>
      </trkpt>
      <trkpt lat="43.61489" lon="7.04396">
        <ele>174</ele>
        <time>2016-06-15T05:04:23Z</time>
      </trkpt>
      <trkpt lat="43.61473" lon="7.04411">
        <ele>174</ele>
        <time>2016-06-15T05:04:28Z</time>
      </trkpt>
      <trkpt lat="43.61461" lon="7.04421">
        <ele>175</ele>
        <time>2016-06-15T05:04:33Z</time>
      </trkpt>
      <trkpt lat="43.61446" lon="7.04437">
        <ele>175</ele>
        <time>2016-06-15T05:04:38Z</time>
      </trkpt>
      <trkpt lat="43.61438" lon="7.04451">
        <ele>176</ele>
        <time>2016-06-15T05:04:43Z</time>
      </trkpt>
      <trkpt lat="43.61433" lon="7.04464">
        <ele>177</ele>
        <time>2016-06-15T05:04:48Z</time>
      </trkpt>
      <trkpt lat="43.61439" lon="7.04464">
        <ele>178</ele>
        <time>2016-06-15T05:04:53Z</time>
      </trkpt>
      <trkpt lat="43.61444" lon="7.04464">
        <ele>180</ele>
        <time>2016-06-15T05:04:58Z</time>
      </trkpt>
      <trkpt lat="43.61453" lon="7.04463">
        <ele>181</ele>
        <time>2016-06-15T05:05:03Z</time>
      </trkpt>
      <trkpt lat="43.61459" lon="7.04464">
        <ele>183</ele>
        <time>2016-06-15T05:05:08Z</time>
      </trkpt>
      <trkpt lat="43.61476" lon="7.04458">
        <ele>184</ele>
        <time>2016-06-15T05:05:13Z</time>
      </trkpt>
      <trkpt lat="43.615" lon="7.04451">
        <ele>186</ele>
        <time>2016-06-15T05:05:18Z</time>
      </trkpt>
      <trkpt lat="43.61525" lon="7.04447">
        <ele>187</ele>
        <time>2016-06-15T05:05:23Z</time>
      </trkpt>
      <trkpt lat="43.6155" lon="7.04441">
        <ele>189</ele>
        <time>2016-06-15T05:05:28Z</time>
      </trkpt>
      <trkpt lat="43.61576" lon="7.04444">
        <ele>191</ele>
        <time>2016-06-15T05:05:33Z</time>
      </trkpt>
      <trkpt lat="43.61598" lon="7.04464">
        <ele>193</ele>
        <time>2016-06-15T05:05:38Z</time>
      </trkpt>
      <trkpt lat="43.61624" lon="7.04497">
        <ele>195</ele>
        <time>2016-06-15T05:05:43Z</time>
      </trkpt>
      <trkpt lat="43.61647" lon="7.04532">
        <ele>198</ele>
        <time>2016-06-15T05:05:48Z</time>
      </trkpt>
      <trkpt lat="43.61666" lon="7.04567">
        <ele>200</ele>
        <time>2016-06-15T05:05:53Z</time>
      </trkpt>
      <trkpt lat="43.61683" lon="7.04601">
        <ele>201</ele>
        <time>2016-06-15T05:05:58Z</time>
      </trkpt>
      <trkpt lat="43.61702" lon="7.04632">
        <ele>203</ele>
        <time>2016-06-15T05:06:03Z</time>
      </trkpt>
      <trkpt lat="43.61717" lon="7.0467">
        <ele>204</ele>
        <time>2016-06-15T05:06:08Z</time>
      </trkpt>
      <trkpt lat="43.6173" lon="7.04712">
        <ele>204</ele>
        <time>2016-06-15T05:06:13Z</time>
      </trkpt>
      <trkpt lat="43.61741" lon="7.0475">
        <ele>205</ele>
        <time>2016-06-15T05:06:18Z</time>
      </trkpt>
      <trkpt lat="43.61748" lon="7.04774">
        <ele>206</ele>
        <time>2016-06-15T05:06:23Z</time>
      </trkpt>
      <trkpt lat="43.61751" lon="7.04805">
        <ele>206</ele>
        <time>2016-06-15T05:06:28Z</time>
      </trkpt>
      <trkpt lat="43.6175" lon="7.04837">
        <ele>207</ele>
        <time>2016-06-15T05:06:33Z</time>
      </trkpt>
      <trkpt lat="43.61759" lon="7.04844">
        <ele>207</ele>
        <time>2016-06-15T05:06:38Z</time>
      </trkpt>
      <trkpt lat="43.61782" lon="7.0484">
        <ele>207</ele>
        <time>2016-06-15T05:06:43Z</time>
      </trkpt>
      <trkpt lat="43.61795" lon="7.04841">
        <ele>207</ele>
        <time>2016-06-15T05:06:48Z</time>
      </trkpt>
      <trkpt lat="43.61812" lon="7.04841">
        <ele>206</ele>
        <time>2016-06-15T05:06:53Z</time>
      </trkpt>
      <trkpt lat="43.61819" lon="7.04839">
        <ele>205</ele>
        <time>2016-06-15T05:06:58Z</time>
      </trkpt>
      <trkpt lat="43.61828" lon="7.04848">
        <ele>203</ele>
        <time>2016-06-15T05:07:03Z</time>
      </trkpt>
      <trkpt lat="43.61837" lon="7.04864">
        <ele>201</ele>
        <time>2016-06-15T05:07:08Z</time>
      </trkpt>
      <trkpt lat="43.61835" lon="7.04898">
        <ele>199</ele>
        <time>2016-06-15T05:07:13Z</time>
      </trkpt>
      <trkpt lat="43.61837" lon="7.04912">
        <ele>197</ele>
        <time>2016-06-15T05:07:18Z</time>
      </trkpt>
      <trkpt lat="43.61845" lon="7.04902">
        <ele>195</ele>
        <time>2016-06-15T05:07:23Z</time>
      </trkpt>
      <trkpt lat="43.61848" lon="7.04897">
        <ele>193</ele>
        <time>2016-06-15T05:07:28Z</time>
      </trkpt>
      <trkpt lat="43.61849" lon="7.0491">
        <ele>190</ele>
        <time>2016-06-15T05:07:33Z</time>
      </trkpt>
      <trkpt lat="43.61853" lon="7.04925">
        <ele>188</ele>
        <time>2016-06-15T05:07:38Z</time>
      </trkpt>
      <trkpt lat="43.61866" lon="7.04935">
        <ele>185</ele>
        <time>2016-06-15T05:07:43Z</time>
      </trkpt>
      <trkpt lat="43.61878" lon="7.04943">
        <ele>182</ele>
        <time>2016-06-15T05:07:48Z</time>
      </trkpt>
      <trkpt lat="43.61889" lon="7.04947">
        <ele>179</ele>
        <time>2016-06-15T05:07:53Z</time>
      </trkpt>
      <trkpt lat="43.61908" lon="7.04947">
        <ele>175</ele>
        <time>2016-06-15T05:07:58Z</time>
      </trkpt>
      <trkpt lat="43.61921" lon="7.04948">
        <ele>172</ele>
        <time>2016-06-15T05:08:03Z</time>
      </trkpt>
      <trkpt lat="43.61932" lon="7.0495">
        <ele>168</ele>
        <time>2016-06-15T05:08:08Z</time>
      </trkpt>
      <trkpt lat="43.61943" lon="7.04944">
        <ele>164</ele>
        <time>2016-06-15T05:08:13Z</time>
      </trkpt>
      <trkpt lat="43.6196" lon="7.04941">
        <ele>160</ele>
        <time>2016-06-15T05:08:18Z</time>
      </trkpt>
      <trkpt lat="43.61979" lon="7.0492">
        <ele>156</ele>
        <time>2016-06-15T05:08:23Z</time>
      </trkpt>
      <trkpt lat="43.61998" lon="7.04899">
        <ele>152</ele>
        <time>2016-06-15T05:08:28Z</time>
      </trkpt>
      <trkpt lat="43.62023" lon="7.049">
        <ele>147</ele>
        <time>2016-06-15T05:08:33Z</time>
      </trkpt>
      <trkpt lat="43.62048" lon="7.04922">
        <ele>143</ele>
        <time>2016-06-15T05:08:38Z</time>
      </trkpt>
      <trkpt lat="43.62069" lon="7.04954">
        <ele>139</ele>
        <time>2016-06-15T05:08:43Z</time>
      </trkpt>
      <trkpt lat="43.62074" lon="7.04985">
        <ele>134</ele>
        <time>2016-06-15T05:08:48Z</time>
      </trkpt>
      <trkpt lat="43.6206" lon="7.04996">
        <ele>130</ele>
        <time>2016-06-15T05:08:53Z</time>
      </trkpt>
      <trkpt lat="43.62048" lon="7.0502">
        <ele>126</ele>
        <time>2016-06-15T05:08:58Z</time>
      </trkpt>
      <trkpt lat="43.62052" lon="7.05025">
        <ele>122</ele>
        <time>2016-06-15T05:09:03Z</time>
      </trkpt>
      <trkpt lat="43.62056" lon="7.05048">
        <ele>119</ele>
        <time>2016-06-15T05:09:08Z</time>
      </trkpt>
      <trkpt lat="43.62051" lon="7.0509">
        <ele>115</ele>
        <time>2016-06-15T05:09:13Z</time>
      </trkpt>
      <trkpt lat="43.62046" lon="7.05138">
        <ele>113</ele>
        <time>2016-06-15T05:09:18Z</time>
      </trkpt>
      <trkpt lat="43.62045" lon="7.05177">
        <ele>110</ele>
        <time>2016-06-15T05:09:23Z</time>
      </trkpt>
      <trkpt lat="43.6204" lon="7.05215">
        <ele>109</ele>
        <time>2016-06-15T05:09:28Z</time>
      </trkpt>
      <trkpt lat="43.62038" lon="7.05257">
        <ele>108</ele>
        <time>2016-06-15T05:09:33Z</time>
      </trkpt>
      <trkpt lat="43.62037" lon="7.05297">
        <ele>107</ele>
        <time>2016-06-15T05:09:38Z</time>
      </trkpt>
      <trkpt lat="43.62039" lon="7.0533">
        <ele>107</ele>
        <time>2016-06-15T05:09:43Z</time>
      </trkpt>
      <trkpt lat="43.62041" lon="7.05361">
        <ele>107</ele>
        <time>2016-06-15T05:09:48Z</time>
      </trkpt>
      <trkpt lat="43.62048" lon="7.05394">
        <ele>107</ele>
        <time>2016-06-15T05:09:53Z</time>
      </trkpt>
      <trkpt lat="43.62058" lon="7.05426">
        <ele>108</ele>
        <time>2016-06-15T05:09:58Z</time>
      </trkpt>
      <trkpt lat="43.62069" lon="7.05438">
        <ele>109</ele>
        <time>2016-06-15T05:10:03Z</time>
      </trkpt>
      <trkpt lat="43.62099" lon="7.05433">
        <ele>110</ele>
        <time>2016-06-15T05:10:08Z</time>
      </trkpt>
      <trkpt lat="43.62118" lon="7.05438">
        <ele>111</ele>
        <time>2016-06-15T05:10:13Z</time>
      </trkpt>
      <trkpt lat="43.62133" lon="7.05469">
        <ele>111</ele>
        <time>2016-06-15T05:10:18Z</time>
      </trkpt>
      <trkpt lat="43.62142" lon="7.05503">
        <ele>112</ele>
        <time>2016-06-15T05:10:23Z</time>
      </trkpt>
      <trkpt lat="43.6216" lon="7.0553">
        <ele>112</ele>
        <time>2016-06-15T05:10:28Z</time>
      </trkpt>
      <trkpt lat="43.62183" lon="7.05552">
        <ele>112</ele>
        <time>2016-06-15T05:10:33Z</time>
      </trkpt>
      <trkpt lat="43.62197" lon="7.05568">
        <ele>112</ele>
        <time>2016-06-15T05:10:38Z</time>
      </trkpt>
      <trkpt lat="43.6222" lon="7.05567">
        <ele>112</ele>
        <time>2016-06-15T05:10:43Z</time>
      </trkpt>
      <trkpt lat="43.6223" lon="7.05554">
        <ele>112</ele>
        <time>2016-06-15T05:10:48Z</time>
      </trkpt>
      <trkpt lat="43.6223" lon="7.05538">
        <ele>111</ele>
        <time>2016-06-15T05:10:53Z</time>
      </trkpt>
      <trkpt lat="43.62223" lon="7.05526">
        <ele>110</ele>
        <time>2016-06-15T05:10:58Z</time>
      </trkpt>
      <trkpt lat="43.6221" lon="7.05516">
        <ele>109</ele>
        <time>2016-06-15T05:11:03Z</time>
      </trkpt>
      <trkpt lat="43.62197" lon="7.05512">
        <ele>108</ele>
        <time>2016-06-15T05:11:08Z</time>
      </trkpt>
      <trkpt lat="43.62176" lon="7.05494">
        <ele>106</ele>
        <time>2016-06-15T05:11:13Z</time>
      </trkpt>
      <trkpt lat="43.62163" lon="7.0547">
        <ele>105</ele>
        <time>2016-06-15T05:11:18Z</time>
      </trkpt>
      <trkpt lat="43.62148" lon="7.05444">
        <ele>103</ele>
        <time>2016-06-15T05:11:23Z</time>
      </trkpt>
      <trkpt lat="43.6213" lon="7.05417">
        <ele>102</ele>
        <time>2016-06-15T05:11:28Z</time>
      </trkpt>
      <trkpt lat="43.62107" lon="7.05395">
        <ele>101</ele>
        <time>2016-06-15T05:11:33Z</time>
      </trkpt>
      <trkpt lat="43.62093" lon="7.05375">
        <ele>100</ele>
        <time>2016-06-15T05:11:38Z</time>
      </trkpt>
      <trkpt lat="43.62086" lon="7.05343">
        <ele>100</ele>
        <time>2016-06-15T05:11:43Z</time>
      </trkpt>
      <trkpt lat="43.62083" lon="7.0532">
        <ele>100</ele>
        <time>2016-06-15T05:11:48Z</time>
      </trkpt>
      <trkpt lat="43.62085" lon="7.05289">
        <ele>100</ele>
        <time>2016-06-15T05:11:53Z</time>
      </trkpt>
      <trkpt lat="43.62087" lon="7.05276">
        <ele>100</ele>
        <time>2016-06-15T05:11:58Z</time>
      </trkpt>
      <trkpt lat="43.62092" lon="7.05258">
        <ele>100</ele>
        <time>2016-06-15T05:12:03Z</time>
      </trkpt>
      <trkpt lat="43.62097" lon="7.05243">
        <ele>100</ele>
        <time>2016-06-15T05:12:08Z</time>
      </trkpt>
      <trkpt lat="43.62099" lon="7.05236">
        <ele>101</ele>
        <time>2016-06-15T05:12:13Z</time>
      </trkpt>
      <trkpt lat="43.62103" lon="7.05215">
        <ele>102</ele>
        <time>2016-06-15T05:12:18Z</time>
      </trkpt>
      <trkpt lat="43.62104" lon="7.05201">
        <ele>103</ele>
        <time>2016-06-15T05:12:23Z</time>
      </trkpt>
      <trkpt lat="43.62107" lon="7.05184">
        <ele>104</ele>
        <time>2016-06-15T05:12:28Z</time>
      </trkpt>
      <trkpt lat="43.62109" lon="7.05176">
        <ele>105</ele>
        <time>2016-06-15T05:12:33Z</time>
      </trkpt>
      <trkpt lat="43.62114" lon="7.05163">
        <ele>106</ele>
        <time>2016-06-15T05:12:38Z</time>
      </trkpt>
      <trkpt lat="43.62114" lon="7.05155">
        <ele>107</ele>
        <time>2016-06-15T05:12:43Z</time>
      </trkpt>
      <trkpt lat="43.62114" lon="7.05148">
        <ele>107</ele>
        <time>2016-06-15T05:12:48Z</time>
      </trkpt>
      <trkpt lat="43.62116" lon="7.05134">
        <ele>107</ele>
        <time>2016-06-15T05:12:53Z</time>
      </trkpt>
      <trkpt lat="43.62119" lon="7.0512">
        <ele>107</ele>
        <time>2016-06-15T05:12:58Z</time>
      </trkpt>
      <trkpt lat="43.62123" lon="7.05104">
        <ele>106</ele>
        <time>2016-06-15T05:13:03Z</time>
      </trkpt>
      <trkpt lat="43.62125" lon="7.05088">
        <ele>105</ele>
        <time>2016-06-15T05:13:08Z</time>
      </trkpt>
      <trkpt lat="43.62126" lon="7.05073">
        <ele>105</ele>
        <time>2016-06-15T05:13:13Z</time>
      </trkpt>
      <trkpt lat="43.62129" lon="7.05066">
        <ele>104</ele>
        <time>2016-06-15T05:13:18Z</time>
      </trkpt>
      <trkpt lat="43.62129" lon="7.0505">
        <ele>103</ele>
        <time>2016-06-15T05:13:23Z</time>
      </trkpt>
      <trkpt lat="43.62113" lon="7.05024">
        <ele>102</ele>
        <time>2016-06-15T05:13:28Z</time>
      </trkpt>
      <trkpt lat="43.621" lon="7.04994">
        <ele>100</ele>
        <time>2016-06-15T05:13:33Z</time>
      </trkpt>
      <trkpt lat="43.62095" lon="7.04969">
        <ele>99</ele>
        <time>2016-06-15T05:13:38Z</time>
      </trkpt>
      <trkpt lat="43.62097" lon="7.04943">
        <ele>98</ele>
        <time>2016-06-15T05:13:43Z</time>
      </trkpt>
      <trkpt lat="43.62098" lon="7.04928">
        <ele>96</ele>
        <time>2016-06-15T05:13:48Z</time>
      </trkpt>
      <trkpt lat="43.621" lon="7.04922">
        <ele>95</ele>
        <time>2016-06-15T05:13:53Z</time>
      </trkpt>
      <trkpt lat="43.62106" lon="7.04933">
        <ele>93</ele>
        <time>2016-06-15T05:13:58Z</time>
      </trkpt>
      <trkpt lat="43.62109" lon="7.0494">
        <ele>92</ele>
        <time>2016-06-15T05:14:03Z</time>
      </trkpt>
      <trkpt lat="43.62114" lon="7.04952">
        <ele>91</ele>
        <time>2016-06-15T05:14:08Z</time>
      </trkpt>
      <trkpt lat="43.6212" lon="7.04946">
        <ele>90</ele>
        <time>2016-06-15T05:14:13Z</time>
      </trkpt>
      <trkpt lat="43.62119" lon="7.04925">
        <ele>90</ele>
        <time>2016-06-15T05:14:18Z</time>
      </trkpt>
      <trkpt lat="43.62117" lon="7.0491">
        <ele>89</ele>
        <time>2016-06-15T05:14:23Z</time>
      </trkpt>
      <trkpt lat="43.62112" lon="7.04885">
        <ele>89</ele>
        <time>2016-06-15T05:14:28Z</time>
      </trkpt>
      <trkpt lat="43.62104" lon="7.04865">
        <ele>89</ele>
        <time>2016-06-15T05:14:33Z</time>
      </trkpt>
      <trkpt lat="43.62082" lon="7.04847">
        <ele>89</ele>
        <time>2016-06-15T05:14:38Z</time>
      </trkpt>
      <trkpt lat="43.6205" lon="7.04831">
        <ele>88</ele>
        <time>2016-06-15T05:14:43Z</time>
      </trkpt>
      <trkpt lat="43.6202" lon="7.04811">
        <ele>88</ele>
        <time>2016-06-15T05:14:48Z</time>
      </trkpt>
      <trkpt lat="43.61999" lon="7.04814">
        <ele>88</ele>
        <time>2016-06-15T05:14:53Z</time>
      </trkpt>
      <trkpt lat="43.61972" lon="7.04802">
        <ele>89</ele>
        <time>2016-06-15T05:14:58Z</time>
      </trkpt>
      <trkpt lat="43.61949" lon="7.04783">
        <ele>89</ele>
        <time>2016-06-15T05:15:03Z</time>
      </trkpt>
      <trkpt lat="43.61918" lon="7.04769">
        <ele>90</ele>
        <time>2016-06-15T05:15:08Z</time>
      </trkpt>
      <trkpt lat="43.61902" lon="7.04737">
        <ele>91</ele>
        <time>2016-06-15T05:15:13Z</time>
      </trkpt>
      <trkpt lat="43.61903" lon="7.04715">
        <ele>93</ele>
        <time>2016-06-15T05:15:18Z</time>
      </trkpt>
      <trkpt lat="43.61906" lon="7.04687">
        <ele>94</ele>
        <time>2016-06-15T05:15:23Z</time>
      </trkpt>
      <trkpt lat="43.61909" lon="7.04667">
        <ele>96</ele>
        <time>2016-06-15T05:15:28Z</time>
      </trkpt>
      <trkpt lat="43.61906" lon="7.04624">
        <ele>98</ele>
        <time>2016-06-15T05:15:33Z</time>
      </trkpt>
      <trkpt lat="43.61895" lon="7.04585">
        <ele>101</ele>
        <time>2016-06-15T05:15:38Z</time>
      </trkpt>
      <trkpt lat="43.61882" lon="7.0456">
        <ele>103</ele>
        <time>2016-06-15T05:15:43Z</time>
      </trkpt>
      <trkpt lat="43.61875" lon="7.04545">
        <ele>105</ele>
        <time>2016-06-15T05:15:48Z</time>
      </trkpt>
      <trkpt lat="43.61869" lon="7.0453">
        <ele>108</ele>
        <time>2016-06-15T05:15:53Z</time>
      </trkpt>
      <trkpt lat="43.6186" lon="7.04517">
        <ele>110</ele>
        <time>2016-06-15T05:15:58Z</time>
      </trkpt>
      <trkpt lat="43.61842" lon="7.04492">
        <ele>113</ele>
        <time>2016-06-15T05:16:03Z</time>
      </trkpt>
      <trkpt lat="43.6183" lon="7.04482">
        <ele>115</ele>
        <time>2016-06-15T05:16:08Z</time>
      </trkpt>
      <trkpt lat="43.61803" lon="7.0448">
        <ele>116</ele>
        <time>2016-06-15T05:16:13Z</time>
      </trkpt>
      <trkpt lat="43.61775" lon="7.04477">
        <ele>117</ele>
        <time>2016-06-15T05:16:18Z</time>
      </trkpt>
      <trkpt lat="43.61747" lon="7.04471">
        <ele>118</ele>
        <time>2016-06-15T05:16:23Z</time>
      </trkpt>
      <trkpt lat="43.61724" lon="7.04445">
        <ele>119</ele>
        <time>2016-06-15T05:16:28Z</time>
      </trkpt>
      <trkpt lat="43.61718" lon="7.04405">
        <ele>120</ele>
        <time>2016-06-15T05:16:33Z</time>
      </trkpt>
      <trkpt lat="43.61726" lon="7.04365">
        <ele>120</ele>
        <time>2016-06-15T05:16:38Z</time>
      </trkpt>
      <trkpt lat="43.6173" lon="7.04329">
        <ele>120</ele>
        <time>2016-06-15T05:16:43Z</time>
      </trkpt>
      <trkpt lat="43.61728" lon="7.04295">
        <ele>120</ele>
        <time>2016-06-15T05:16:48Z</time>
      </trkpt>
      <trkpt lat="43.61712" lon="7.04259">
        <ele>120</ele>
        <time>2016-06-15T05:16:53Z</time>
      </trkpt>
      <trkpt lat="43.61688" lon="7.04232">
        <ele>120</ele>
        <time>2016-06-15T05:16:58Z</time>
      </trkpt>
      <trkpt lat="43.61675" lon="7.04213">
        <ele>120</ele>
        <time>2016-06-15T05:17:03Z</time>
      </trkpt>
      <trkpt lat="43.61677" lon="7.042">
        <ele>119</ele>
        <time>2016-06-15T05:17:08Z</time>
      </trkpt>
      <trkpt lat="43.61679" lon="7.04194">
        <ele>119</ele>
        <time>2016-06-15T05:17:13Z</time>
      </trkpt>
      <trkpt lat="43.61682" lon="7.0419">
        <ele>118</ele>
        <time>2016-06-15T05:17:18Z</time>
      </trkpt>
      <trkpt lat="43.61682" lon="7.0419">
        <ele>118</ele>
        <time>2016-06-15T05:17:23Z</time>
      </trkpt>
      <trkpt lat="43.61682" lon="7.0419">
        <ele>118</ele>
        <time>2016-06-15T05:17:28Z</time>
      </trkpt>
      <trkpt lat="43.61682" lon="7.0419">
        <ele>118</ele>
        <time>2016-06-15T05:17:33Z</time>
      </trkpt>
      <trkpt lat="43.61682" lon="7.0419">
        <ele>118</ele>
        <time>2016-06-15T05:17:38Z</time>
      </trkpt>
      <trkpt lat="43.61682" lon="7.04196">
        <ele>118</ele>
        <time>2016-06-15T05:17:43Z</time>
      </trkpt>
      <trkpt lat="43.61682" lon="7.04196">
        <ele>119</ele>
        <time>2016-06-15T05:17:48Z</time>
      </trkpt>
      <trkpt lat="43.61682" lon="7.04196">
        <ele>119</ele>
        <time>2016-06-15T05:17:53Z</time>
      </trkpt>
      <trkpt lat="43.61682" lon="7.04196">
        <ele>119</ele>
        <time>2016-06-15T05:17:58Z</time>
      </trkpt>
      <trkpt lat="43.61682" lon="7.04196">
        <ele>120</ele>
        <time>2016-06-15T05:18:03Z</time>
      </trkpt>
      <trkpt lat="43.61682" lon="7.04196">
        <ele>120</ele>
        <time>2016-06-15T05:18:08Z</time>
      </trkpt>
      <trkpt lat="43.61682" lon="7.04196">
        <ele>120</ele>
        <time>2016-06-15T05:18:13Z</time>
      </trkpt>
      <trkpt lat="43.61682" lon="7.04196">
        <ele>120</ele>
        <time>2016-06-15T05:18:18Z</time>
      </trkpt>
      <trkpt lat="43.61682" lon="7.04196">
        <ele>120</ele>
        <time>2016-06-15T05:18:23Z</time>
      </trkpt>
      <trkpt lat="43.61682" lon="7.04196">
        <ele>120</ele>
        <time>2016-06-15T05:18:28Z</time>
      </trkpt>
      <trkpt lat="43.61682" lon="7.04196">
        <ele>120</ele>
        <time>2016-06-15T05:18:33Z</time>
      </trkpt>
      <trkpt lat="43.61682" lon="7.04196">
        <ele>120</ele>
        <time>2016-06-15T05:18:38Z</time>
      </trkpt>
      <trkpt lat="43.61682" lon="7.04196">
        <ele>120</ele>
        <time>2016-06-15T05:18:43Z</time>
      </trkpt>
      <trkpt lat="43.61682" lon="7.04196">
        <ele>120</ele>
        <time>2016-06-15T05:18:48Z</time>
      </trkpt>
      <trkpt lat="43.61682" lon="7.04196">
        <ele>120</ele>
        <time>2016-06-15T05:18:53Z</time>
      </trkpt>
      <trkpt lat="43.61682" lon="7.04196">
        <ele>120</ele>
        <time>2016-06-15T05:18:58Z</time>
      </trkpt>
      <trkpt lat="43.61682" lon="7.04196">
        <ele>120</ele>
        <time>2016-06-15T05:19:03Z</time>
      </trkpt>
      <trkpt lat="43.61682" lon="7.04196">
        <ele>120</ele>
        <time>2016-06-15T05:19:08Z</time>
      </trkpt>
      <trkpt lat="43.61682" lon="7.04196">
        <ele>120</ele>
        <time>2016-06-15T05:19:13Z</time>
      </trkpt>
      <trkpt lat="43.61682" lon="7.04196">
        <ele>119</ele>
        <time>2016-06-15T05:19:18Z</time>
      </trkpt>
      <trkpt lat="43.61682" lon="7.04196">
        <ele>119</ele>
        <time>2016-06-15T05:19:23Z</time>
      </trkpt>
      <trkpt lat="43.61682" lon="7.04196">
        <ele>120</ele>
        <time>2016-06-15T05:19:28Z</time>
      </trkpt>
      <trkpt lat="43.61678" lon="7.04192">
        <ele>120</ele>
        <time>2016-06-15T05:19:33Z</time>
      </trkpt>
      <trkpt lat="43.61678" lon="7.04192">
        <ele>120</ele>
        <time>2016-06-15T05:19:38Z</time>
      </trkpt>
      <trkpt lat="43.61678" lon="7.04192">
        <ele>120</ele>
        <time>2016-06-15T05:19:43Z</time>
      </trkpt>
      <trkpt lat="43.61678" lon="7.04198">
        <ele>120</ele>
        <time>2016-06-15T05:19:48Z</time>
      </trkpt>
      <trkpt lat="43.61678" lon="7.04198">
        <ele>121</ele>
        <time>2016-06-15T05:19:53Z</time>
      </trkpt>
      <trkpt lat="43.61683" lon="7.04195">
        <ele>121</ele>
        <time>2016-06-15T05:19:58Z</time>
      </trkpt>
      <trkpt lat="43.61683" lon="7.04195">
        <ele>121</ele>
        <time>2016-06-15T05:20:03Z</time>
      </trkpt>
      <trkpt lat="43.61683" lon="7.04195">
        <ele>122</ele>
        <time>2016-06-15T05:20:08Z</time>
      </trkpt>
      <trkpt lat="43.61683" lon="7.04195">
        <ele>122</ele>
        <time>2016-06-15T05:20:13Z</time>
      </trkpt>
      <trkpt lat="43.6168" lon="7.0419">
        <ele>123</ele>
        <time>2016-06-15T05:20:18Z</time>
      </trkpt>
      <trkpt lat="43.61675" lon="7.04186">
        <ele>124</ele>
        <time>2016-06-15T05:20:23Z</time>
      </trkpt>
      <trkpt lat="43.61675" lon="7.04186">
        <ele>124</ele>
        <time>2016-06-15T05:20:28Z</time>
      </trkpt>
      <trkpt lat="43.6167" lon="7.04188">
        <ele>125</ele>
        <time>2016-06-15T05:20:33Z</time>
      </trkpt>
      <trkpt lat="43.6167" lon="7.04188">
        <ele>125</ele>
        <time>2016-06-15T05:20:38Z</time>
      </trkpt>
      <trkpt lat="43.6167" lon="7.04188">
        <ele>126</ele>
        <time>2016-06-15T05:20:43Z</time>
      </trkpt>
      <trkpt lat="43.6167" lon="7.04188">
        <ele>126</ele>
        <time>2016-06-15T05:20:48Z</time>
      </trkpt>
      <trkpt lat="43.6167" lon="7.04196">
        <ele>126</ele>
        <time>2016-06-15T05:20:53Z</time>
      </trkpt>
      <trkpt lat="43.6167" lon="7.04196">
        <ele>127</ele>
        <time>2016-06-15T05:20:58Z</time>
      </trkpt>
      <trkpt lat="43.6167" lon="7.04196">
        <ele>127</ele>
        <time>2016-06-15T05:21:03Z</time>
      </trkpt>
      <trkpt lat="43.61667" lon="7.04201">
        <ele>127</ele>
        <time>2016-06-15T05:21:08Z</time>
      </trkpt>
      <trkpt lat="43.61667" lon="7.04201">
        <ele>127</ele>
        <time>2016-06-15T05:21:13Z</time>
      </trkpt>
      <trkpt lat="43.61667" lon="7.04201">
        <ele>127</ele>
        <time>2016-06-15T05:21:18Z</time>
      </trkpt>
      <trkpt lat="43.61667" lon="7.04201">
        <ele>127</ele>
        <time>2016-06-15T05:21:23Z</time>
      </trkpt>
      <trkpt lat="43.61667" lon="7.04201">
        <ele>127</ele>
        <time>2016-06-15T05:21:28Z</time>
      </trkpt>
      <trkpt lat="43.61667" lon="7.04201">
        <ele>128</ele>
        <time>2016-06-15T05:21:33Z</time>
      </trkpt>
      <trkpt lat="43.61667" lon="7.04201">
        <ele>128</ele>
        <time>2016-06-15T05:21:38Z</time>
      </trkpt>
      <trkpt lat="43.61667" lon="7.04201">
        <ele>128</ele>
        <time>2016-06-15T05:21:43Z</time>
      </trkpt>
      <trkpt lat="43.61669" lon="7.04195">
        <ele>128</ele>
        <time>2016-06-15T05:21:48Z</time>
      </trkpt>
      <trkpt lat="43.61669" lon="7.04195">
        <ele>128</ele>
        <time>2016-06-15T05:21:53Z</time>
      </trkpt>
      <trkpt lat="43.61669" lon="7.04195">
        <ele>128</ele>
        <time>2016-06-15T05:21:58Z</time>
      </trkpt>
      <trkpt lat="43.61669" lon="7.04195">
        <ele>128</ele>
        <time>2016-06-15T05:22:03Z</time>
      </trkpt>
      <trkpt lat="43.61669" lon="7.04195">
        <ele>128</ele>
        <time>2016-06-15T05:22:08Z</time>
      </trkpt>
      <trkpt lat="43.61669" lon="7.04195">
        <ele>128</ele>
        <time>2016-06-15T05:22:13Z</time>
      </trkpt>
      <trkpt lat="43.61669" lon="7.04195">
        <ele>128</ele>
        <time>2016-06-15T05:22:18Z</time>
      </trkpt>
      <trkpt lat="43.61669" lon="7.04195">
        <ele>128</ele>
        <time>2016-06-15T05:22:23Z</time>
      </trkpt>
      <trkpt lat="43.61669" lon="7.04195">
        <ele>128</ele>
        <time>2016-06-15T05:22:28Z</time>
      </trkpt>
      <trkpt lat="43.61669" lon="7.04195">
        <ele>128</ele>
        <time>2016-06-15T05:22:33Z</time>
      </trkpt>
      <trkpt lat="43.61669" lon="7.04195">
        <ele>129</ele>
        <time>2016-06-15T05:22:38Z</time>
      </trkpt>
      <trkpt lat="43.61665" lon="7.04198">
        <ele>129</ele>
        <time>2016-06-15T05:22:43Z</time>
      </trkpt>
      <trkpt lat="43.61665" lon="7.04198">
        <ele>129</ele>
        <time>2016-06-15T05:22:48Z</time>
      </trkpt>
      <trkpt lat="43.61665" lon="7.04198">
        <ele>129</ele>
        <time>2016-06-15T05:22:53Z</time>
      </trkpt>
      <trkpt lat="43.61665" lon="7.04198">
        <ele>129</ele>
        <time>2016-06-15T05:22:58Z</time>
      </trkpt>
      <trkpt lat="43.61665" lon="7.04198">
        <ele>129</ele>
        <time>2016-06-15T05:23:03Z</time>
      </trkpt>
      <trkpt lat="43.61665" lon="7.04198">
        <ele>129</ele>
        <time>2016-06-15T05:23:08Z</time>
      </trkpt>
      <trkpt lat="43.61665" lon="7.04198">
        <ele>129</ele>
        <time>2016-06-15T05:23:13Z</time>
      </trkpt>
      <trkpt lat="43.61665" lon="7.04198">
        <ele>129</ele>
        <time>2016-06-15T05:23:18Z</time>
      </trkpt>
      <trkpt lat="43.61665" lon="7.04198">
        <ele>129</ele>
        <time>2016-06-15T05:23:23Z</time>
      </trkpt>
      <trkpt lat="43.61665" lon="7.04198">
        <ele>129</ele>
        <time>2016-06-15T05:23:28Z</time>
      </trkpt>
      <trkpt lat="43.61665" lon="7.04198">
        <ele>129</ele>
        <time>2016-06-15T05:23:33Z</time>
      </trkpt>
      <trkpt lat="43.61669" lon="7.04194">
        <ele>129</ele>
        <time>2016-06-15T05:23:38Z</time>
      </trkpt>
      <trkpt lat="43.61669" lon="7.04194">
        <ele>129</ele>
        <time>2016-06-15T05:23:43Z</time>
      </trkpt>
      <trkpt lat="43.61669" lon="7.04194">
        <ele>129</ele>
        <time>2016-06-15T05:23:48Z</time>
      </trkpt>
      <trkpt lat="43.61669" lon="7.04194">
        <ele>129</ele>
        <time>2016-06-15T05:23:53Z</time>
      </trkpt>
      <trkpt lat="43.61671" lon="7.04188">
        <ele>129</ele>
        <time>2016-06-15T05:23:58Z</time>
      </trkpt>
      <trkpt lat="43.61671" lon="7.04188">
        <ele>130</ele>
        <time>2016-06-15T05:24:03Z</time>
      </trkpt>
      <trkpt lat="43.61671" lon="7.04188">
        <ele>130</ele>
        <time>2016-06-15T05:24:08Z</time>
      </trkpt>
      <trkpt lat="43.61671" lon="7.04188">
        <ele>130</ele>
        <time>2016-06-15T05:24:13Z</time>
      </trkpt>
      <trkpt lat="43.61671" lon="7.04188">
        <ele>130</ele>
        <time>2016-06-15T05:24:18Z</time>
      </trkpt>
      <trkpt lat="43.61671" lon="7.04188">
        <ele>130</ele>
        <time>2016-06-15T05:24:23Z</time>
      </trkpt>
      <trkpt lat="43.61671" lon="7.04188">
        <ele>130</ele>
        <time>2016-06-15T05:24:28Z</time>
      </trkpt>
      <trkpt lat="43.61671" lon="7.04188">
        <ele>130</ele>
        <time>2016-06-15T05:24:33Z</time>
      </trkpt>
      <trkpt lat="43.61671" lon="7.04188">
        <ele>130</ele>
        <time>2016-06-15T05:24:38Z</time>
      </trkpt>
      <trkpt lat="43.61671" lon="7.04188">
        <ele>130</ele>
        <time>2016-06-15T05:24:43Z</time>
      </trkpt>
      <trkpt lat="43.61671" lon="7.04188">
        <ele>130</ele>
        <time>2016-06-15T05:24:48Z</time>
      </trkpt>
      <trkpt lat="43.61671" lon="7.04188">
        <ele>130</ele>
        <time>2016-06-15T05:24:53Z</time>
      </trkpt>
      <trkpt lat="43.61671" lon="7.04188">
        <ele>130</ele>
        <time>2016-06-15T05:24:58Z</time>
      </trkpt>
      <trkpt lat="43.61671" lon="7.04188">
        <ele>130</ele>
        <time>2016-06-15T05:25:03Z</time>
      </trkpt>
      <trkpt lat="43.61671" lon="7.04188">
        <ele>131</ele>
        <time>2016-06-15T05:25:08Z</time>
      </trkpt>
      <trkpt lat="43.61671" lon="7.04188">
        <ele>131</ele>
        <time>2016-06-15T05:25:13Z</time>
      </trkpt>
      <trkpt lat="43.61671" lon="7.04188">
        <ele>131</ele>
        <time>2016-06-15T05:25:18Z</time>
      </trkpt>
      <trkpt lat="43.61671" lon="7.04188">
        <ele>131</ele>
        <time>2016-06-15T05:25:23Z</time>
      </trkpt>
      <trkpt lat="43.61671" lon="7.04188">
        <ele>131</ele>
        <time>2016-06-15T05:25:28Z</time>
      </trkpt>
      <trkpt lat="43.61671" lon="7.04188">
        <ele>131</ele>
        <time>2016-06-15T05:25:33Z</time>
      </trkpt>
      <trkpt lat="43.61671" lon="7.04188">
        <ele>131</ele>
        <time>2016-06-15T05:25:38Z</time>
      </trkpt>
      <trkpt lat="43.61671" lon="7.04188">
        <ele>131</ele>
        <time>2016-06-15T05:25:43Z</time>
      </trkpt>
      <trkpt lat="43.61671" lon="7.04188">
        <ele>131</ele>
        <time>2016-06-15T05:25:48Z</time>
      </trkpt>
      <trkpt lat="43.61671" lon="7.04188">
        <ele>131</ele>
        <time>2016-06-15T05:25:53Z</time>
      </trkpt>
      <trkpt lat="43.61671" lon="7.04188">
        <ele>131</ele>
        <time>2016-06-15T05:25:58Z</time>
      </trkpt>
      <trkpt lat="43.61671" lon="7.04188">
        <ele>131</ele>
        <time>2016-06-15T05:26:03Z</time>
      </trkpt>
      <trkpt lat="43.61671" lon="7.04188">
        <ele>131</ele>
        <time>2016-06-15T05:26:08Z</time>
      </trkpt>
      <trkpt lat="43.61671" lon="7.04188">
        <ele>131</ele>
        <time>2016-06-15T05:26:13Z</time>
      </trkpt>
      <trkpt lat="43.61671" lon="7.04188">
        <ele>131</ele>
        <time>2016-06-15T05:26:18Z</time>
      </trkpt>
      <trkpt lat="43.61671" lon="7.04188">
        <ele>131</ele>
        <time>2016-06-15T05:26:23Z</time>
      </trkpt>
      <trkpt lat="43.61671" lon="7.04188">
        <ele>131</ele>
        <time>2016-06-15T05:26:28Z</time>
      </trkpt>
      <trkpt lat="43.61671" lon="7.04188">
        <ele>131</ele>
        <time>2016-06-15T05:26:33Z</time>
      </trkpt>
      <trkpt lat="43.61671" lon="7.04188">
        <ele>131</ele>
        <time>2016-06-15T05:26:38Z</time>
      </trkpt>
      <trkpt lat="43.61671" lon="7.04188">
        <ele>131</ele>
        <time>2016-06-15T05:26:43Z</time>
      </trkpt>
      <trkpt lat="43.61671" lon="7.04188">
        <ele>131</ele>
        <time>2016-06-15T05:26:48Z</time>
      </trkpt>
      <trkpt lat="43.61671" lon="7.04188">
        <ele>131</ele>
        <time>2016-06-15T05:26:53Z</time>
      </trkpt>
      <trkpt lat="43.61671" lon="7.04188">
        <ele>131</ele>
        <time>2016-06-15T05:26:58Z</time>
      </trkpt>
      <trkpt lat="43.61671" lon="7.04188">
        <ele>131</ele>
        <time>2016-06-15T05:27:03Z</time>
      </trkpt>
      <trkpt lat="43.61675" lon="7.0419">
        <ele>131</ele>
        <time>2016-06-15T05:27:08Z</time>
      </trkpt>
      <trkpt lat="43.6168" lon="7.04192">
        <ele>131</ele>
        <time>2016-06-15T05:27:13Z</time>
      </trkpt>
      <trkpt lat="43.6168" lon="7.04192">
        <ele>131</ele>
        <time>2016-06-15T05:27:18Z</time>
      </trkpt>
      <trkpt lat="43.61683" lon="7.04188">
        <ele>131</ele>
        <time>2016-06-15T05:27:23Z</time>
      </trkpt>
      <trkpt lat="43.61679" lon="7.04184">
        <ele>131</ele>
        <time>2016-06-15T05:27:28Z</time>
      </trkpt>
      <trkpt lat="43.61675" lon="7.0418">
        <ele>131</ele>
        <time>2016-06-15T05:27:33Z</time>
      </trkpt>
      <trkpt lat="43.61666" lon="7.04187">
        <ele>130</ele>
        <time>2016-06-15T05:27:38Z</time>
      </trkpt>
      <trkpt lat="43.61666" lon="7.04187">
        <ele>130</ele>
        <time>2016-06-15T05:27:43Z</time>
      </trkpt>
      <trkpt lat="43.61663" lon="7.04181">
        <ele>130</ele>
        <time>2016-06-15T05:27:48Z</time>
      </trkpt>
      <trkpt lat="43.61663" lon="7.04181">
        <ele>130</ele>
        <time>2016-06-15T05:27:53Z</time>
      </trkpt>
      <trkpt lat="43.6166" lon="7.04176">
        <ele>129</ele>
        <time>2016-06-15T05:27:58Z</time>
      </trkpt>
      <trkpt lat="43.6166" lon="7.04176">
        <ele>129</ele>
        <time>2016-06-15T05:28:03Z</time>
      </trkpt>
      <trkpt lat="43.6166" lon="7.04176">
        <ele>129</ele>
        <time>2016-06-15T05:28:08Z</time>
      </trkpt>
      <trkpt lat="43.6166" lon="7.04176">
        <ele>129</ele>
        <time>2016-06-15T05:28:13Z</time>
      </trkpt>
      <trkpt lat="43.6166" lon="7.04176">
        <ele>129</ele>
        <time>2016-06-15T05:28:18Z</time>
      </trkpt>
      <trkpt lat="43.61665" lon="7.04176">
        <ele>129</ele>
        <time>2016-06-15T05:28:23Z</time>
      </trkpt>
      <trkpt lat="43.6167" lon="7.0418">
        <ele>129</ele>
        <time>2016-06-15T05:28:28Z</time>
      </trkpt>
      <trkpt lat="43.6167" lon="7.0418">
        <ele>129</ele>
        <time>2016-06-15T05:28:33Z</time>
      </trkpt>
      <trkpt lat="43.6167" lon="7.0418">
        <ele>129</ele>
        <time>2016-06-15T05:28:38Z</time>
      </trkpt>
      <trkpt lat="43.6167" lon="7.0418">
        <ele>129</ele>
        <time>2016-06-15T05:28:43Z</time>
      </trkpt>
      <trkpt lat="43.61659" lon="7.04178">
        <ele>130</ele>
        <time>2016-06-15T05:28:48Z</time>
      </trkpt>
      <trkpt lat="43.61664" lon="7.04183">
        <ele>130</ele>
        <time>2016-06-15T05:28:53Z</time>
      </trkpt>
      <trkpt lat="43.61669" lon="7.04181">
        <ele>130</ele>
        <time>2016-06-15T05:28:58Z</time>
      </trkpt>
      <trkpt lat="43.61674" lon="7.04177">
        <ele>131</ele>
        <time>2016-06-15T05:29:03Z</time>
      </trkpt>
      <trkpt lat="43.61669" lon="7.04181">
        <ele>131</ele>
        <time>2016-06-15T05:29:08Z</time>
      </trkpt>
      <trkpt lat="43.61669" lon="7.04181">
        <ele>131</ele>
        <time>2016-06-15T05:29:13Z</time>
      </trkpt>
      <trkpt lat="43.61669" lon="7.04181">
        <ele>131</ele>
        <time>2016-06-15T05:29:18Z</time>
      </trkpt>
      <trkpt lat="43.61673" lon="7.04186">
        <ele>132</ele>
        <time>2016-06-15T05:29:23Z</time>
      </trkpt>
      <trkpt lat="43.61673" lon="7.04186">
        <ele>132</ele>
        <time>2016-06-15T05:29:28Z</time>
      </trkpt>
      <trkpt lat="43.61673" lon="7.04186">
        <ele>132</ele>
        <time>2016-06-15T05:29:33Z</time>
      </trkpt>
      <trkpt lat="43.61673" lon="7.04186">
        <ele>133</ele>
        <time>2016-06-15T05:29:38Z</time>
      </trkpt>
      <trkpt lat="43.61676" lon="7.04191">
        <ele>133</ele>
        <time>2016-06-15T05:29:43Z</time>
      </trkpt>
      <trkpt lat="43.6168" lon="7.04197">
        <ele>133</ele>
        <time>2016-06-15T05:29:48Z</time>
      </trkpt>
      <trkpt lat="43.6168" lon="7.04197">
        <ele>133</ele>
        <time>2016-06-15T05:29:53Z</time>
      </trkpt>
      <trkpt lat="43.6168" lon="7.04197">
        <ele>133</ele>
        <time>2016-06-15T05:29:58Z</time>
      </trkpt>
      <trkpt lat="43.6168" lon="7.04197">
        <ele>133</ele>
        <time>2016-06-15T05:30:03Z</time>
      </trkpt>
      <trkpt lat="43.6168" lon="7.04197">
        <ele>133</ele>
        <time>2016-06-15T05:30:08Z</time>
      </trkpt>
      <trkpt lat="43.6168" lon="7.04197">
        <ele>134</ele>
        <time>2016-06-15T05:30:13Z</time>
      </trkpt>
      <trkpt lat="43.6168" lon="7.04197">
        <ele>134</ele>
        <time>2016-06-15T05:30:18Z</time>
      </trkpt>
      <trkpt lat="43.6168" lon="7.04197">
        <ele>134</ele>
        <time>2016-06-15T05:30:23Z</time>
      </trkpt>
      <trkpt lat="43.6168" lon="7.04197">
        <ele>134</ele>
        <time>2016-06-15T05:30:28Z</time>
      </trkpt>
      <trkpt lat="43.6168" lon="7.04197">
        <ele>135</ele>
        <time>2016-06-15T05:30:33Z</time>
      </trkpt>
      <trkpt lat="43.6168" lon="7.04197">
        <ele>135</ele>
        <time>2016-06-15T05:30:38Z</time>
      </trkpt>
      <trkpt lat="43.6168" lon="7.04197">
        <ele>135</ele>
        <time>2016-06-15T05:30:43Z</time>
      </trkpt>
      <trkpt lat="43.6168" lon="7.04197">
        <ele>135</ele>
        <time>2016-06-15T05:30:48Z</time>
      </trkpt>
      <trkpt lat="43.6168" lon="7.04197">
        <ele>135</ele>
        <time>2016-06-15T05:30:53Z</time>
      </trkpt>
      <trkpt lat="43.6168" lon="7.04197">
        <ele>135</ele>
        <time>2016-06-15T05:30:58Z</time>
      </trkpt>
      <trkpt lat="43.6168" lon="7.04197">
        <ele>135</ele>
        <time>2016-06-15T05:31:03Z</time>
      </trkpt>
      <trkpt lat="43.6168" lon="7.04197">
        <ele>135</ele>
        <time>2016-06-15T05:31:08Z</time>
      </trkpt>
      <trkpt lat="43.6168" lon="7.04197">
        <ele>135</ele>
        <time>2016-06-15T05:31:13Z</time>
      </trkpt>
      <trkpt lat="43.6168" lon="7.04197">
        <ele>135</ele>
        <time>2016-06-15T05:31:18Z</time>
      </trkpt>
      <trkpt lat="43.6168" lon="7.04197">
        <ele>135</ele>
        <time>2016-06-15T05:31:23Z</time>
      </trkpt>
      <trkpt lat="43.6168" lon="7.04197">
        <ele>135</ele>
        <time>2016-06-15T05:31:28Z</time>
      </trkpt>
      <trkpt lat="43.6168" lon="7.04197">
        <ele>135</ele>
        <time>2016-06-15T05:31:33Z</time>
      </trkpt>
      <trkpt lat="43.6168" lon="7.04197">
        <ele>135</ele>
        <time>2016-06-15T05:31:38Z</time>
      </trkpt>
      <trkpt lat="43.6168" lon="7.04197">
        <ele>135</ele>
        <time>2016-06-15T05:31:43Z</time>
      </trkpt>
      <trkpt lat="43.6168" lon="7.04197">
        <ele>135</ele>
        <time>2016-06-15T05:31:48Z</time>
      </trkpt>
      <trkpt lat="43.6168" lon="7.04197">
        <ele>135</ele>
        <time>2016-06-15T05:31:53Z</time>
      </trkpt>
      <trkpt lat="43.6168" lon="7.04197">
        <ele>135</ele>
        <time>2016-06-15T05:31:58Z</time>
      </trkpt>
      <trkpt lat="43.6168" lon="7.04197">
        <ele>135</ele>
        <time>2016-06-15T05:32:03Z</time>
      </trkpt>
      <trkpt lat="43.6168" lon="7.04197">
        <ele>135</ele>
        <time>2016-06-15T05:32:08Z</time>
      </trkpt>
      <trkpt lat="43.6168" lon="7.04197">
        <ele>135</ele>
        <time>2016-06-15T05:32:13Z</time>
      </trkpt>
      <trkpt lat="43.6168" lon="7.04197">
        <ele>135</ele>
        <time>2016-06-15T05:32:18Z</time>
      </trkpt>
      <trkpt lat="43.6168" lon="7.04197">
        <ele>135</ele>
        <time>2016-06-15T05:32:23Z</time>
      </trkpt>
      <trkpt lat="43.6168" lon="7.04197">
        <ele>136</ele>
        <time>2016-06-15T05:32:28Z</time>
      </trkpt>
      <trkpt lat="43.6168" lon="7.04197">
        <ele>136</ele>
        <time>2016-06-15T05:32:33Z</time>
      </trkpt>
      <trkpt lat="43.6168" lon="7.04197">
        <ele>136</ele>
        <time>2016-06-15T05:32:38Z</time>
      </trkpt>
      <trkpt lat="43.6168" lon="7.04197">
        <ele>136</ele>
        <time>2016-06-15T05:32:43Z</time>
      </trkpt>
      <trkpt lat="43.61676" lon="7.04193">
        <ele>136</ele>
        <time>2016-06-15T05:32:48Z</time>
      </trkpt>
      <trkpt lat="43.61676" lon="7.04193">
        <ele>136</ele>
        <time>2016-06-15T05:32:53Z</time>
      </trkpt>
      <trkpt lat="43.61676" lon="7.04193">
        <ele>137</ele>
        <time>2016-06-15T05:32:58Z</time>
      </trkpt>
      <trkpt lat="43.61676" lon="7.04193">
        <ele>137</ele>
        <time>2016-06-15T05:33:03Z</time>
      </trkpt>
      <trkpt lat="43.61676" lon="7.04193">
        <ele>137</ele>
        <time>2016-06-15T05:33:08Z</time>
      </trkpt>
      <trkpt lat="43.61676" lon="7.04193">
        <ele>137</ele>
        <time>2016-06-15T05:33:13Z</time>
      </trkpt>
      <trkpt lat="43.61676" lon="7.04193">
        <ele>137</ele>
        <time>2016-06-15T05:33:18Z</time>
      </trkpt>
      <trkpt lat="43.61676" lon="7.04193">
        <ele>137</ele>
        <time>2016-06-15T05:33:23Z</time>
      </trkpt>
      <trkpt lat="43.61676" lon="7.04193">
        <ele>137</ele>
        <time>2016-06-15T05:33:28Z</time>
      </trkpt>
      <trkpt lat="43.61676" lon="7.04193">
        <ele>137</ele>
        <time>2016-06-15T05:33:33Z</time>
      </trkpt>
      <trkpt lat="43.61676" lon="7.04193">
        <ele>137</ele>
        <time>2016-06-15T05:33:38Z</time>
      </trkpt>
      <trkpt lat="43.61676" lon="7.04193">
        <ele>138</ele>
        <time>2016-06-15T05:33:43Z</time>
      </trkpt>
      <trkpt lat="43.61676" lon="7.04193">
        <ele>138</ele>
        <time>2016-06-15T05:33:48Z</time>
      </trkpt>
      <trkpt lat="43.61676" lon="7.04193">
        <ele>138</ele>
        <time>2016-06-15T05:33:53Z</time>
      </trkpt>
      <trkpt lat="43.61676" lon="7.04193">
        <ele>138</ele>
        <time>2016-06-15T05:33:58Z</time>
      </trkpt>
      <trkpt lat="43.61676" lon="7.04193">
        <ele>138</ele>
        <time>2016-06-15T05:34:03Z</time>
      </trkpt>
      <trkpt lat="43.61676" lon="7.04193">
        <ele>138</ele>
        <time>2016-06-15T05:34:08Z</time>
      </trkpt>
      <trkpt lat="43.61676" lon="7.04193">
        <ele>138</ele>
        <time>2016-06-15T05:34:13Z</time>
      </trkpt>
      <trkpt lat="43.61676" lon="7.04193">
        <ele>138</ele>
        <time>2016-06-15T05:34:18Z</time>
      </trkpt>
      <trkpt lat="43.61676" lon="7.04193">
        <ele>138</ele>
        <time>2016-06-15T05:34:23Z</time>
      </trkpt>
      <trkpt lat="43.61676" lon="7.04193">
        <ele>138</ele>
        <time>2016-06-15T05:34:28Z</time>
      </trkpt>
      <trkpt lat="43.61676" lon="7.04193">
        <ele>138</ele>
        <time>2016-06-15T05:34:33Z</time>
      </trkpt>
      <trkpt lat="43.61676" lon="7.04193">
        <ele>138</ele>
        <time>2016-06-15T05:34:38Z</time>
      </trkpt>
      <trkpt lat="43.61676" lon="7.04193">
        <ele>138</ele>
        <time>2016-06-15T05:34:43Z</time>
      </trkpt>
      <trkpt lat="43.61676" lon="7.04193">
        <ele>138</ele>
        <time>2016-06-15T05:34:48Z</time>
      </trkpt>
      <trkpt lat="43.61676" lon="7.04193">
        <ele>138</ele>
        <time>2016-06-15T05:34:53Z</time>
      </trkpt>
      <trkpt lat="43.61676" lon="7.04193">
        <ele>138</ele>
        <time>2016-06-15T05:34:58Z</time>
      </trkpt>
      <trkpt lat="43.61676" lon="7.04193">
        <ele>138</ele>
        <time>2016-06-15T05:35:03Z</time>
      </trkpt>
      <trkpt lat="43.61676" lon="7.04193">
        <ele>139</ele>
        <time>2016-06-15T05:35:08Z</time>
      </trkpt>
      <trkpt lat="43.61683" lon="7.04182">
        <ele>139</ele>
        <time>2016-06-15T05:35:13Z</time>
      </trkpt>
      <trkpt lat="43.61695" lon="7.04166">
        <ele>139</ele>
        <time>2016-06-15T05:35:18Z</time>
      </trkpt>
      <trkpt lat="43.61706" lon="7.0414">
        <ele>139</ele>
        <time>2016-06-15T05:35:23Z</time>
      </trkpt>
      <trkpt lat="43.6171" lon="7.04117">
        <ele>139</ele>
        <time>2016-06-15T05:35:28Z</time>
      </trkpt>
      <trkpt lat="43.61717" lon="7.04083">
        <ele>139</ele>
        <time>2016-06-15T05:35:33Z</time>
      </trkpt>
      <trkpt lat="43.61725" lon="7.04048">
        <ele>139</ele>
        <time>2016-06-15T05:35:38Z</time>
      </trkpt>
      <trkpt lat="43.61731" lon="7.0401">
        <ele>139</ele>
        <time>2016-06-15T05:35:43Z</time>
      </trkpt>
      <trkpt lat="43.61729" lon="7.03971">
        <ele>140</ele>
        <time>2016-06-15T05:35:48Z</time>
      </trkpt>
      <trkpt lat="43.61726" lon="7.03943">
        <ele>140</ele>
        <time>2016-06-15T05:35:53Z</time>
      </trkpt>
      <trkpt lat="43.61723" lon="7.03925">
        <ele>141</ele>
        <time>2016-06-15T05:35:58Z</time>
      </trkpt>
      <trkpt lat="43.61706" lon="7.03932">
        <ele>141</ele>
        <time>2016-06-15T05:36:03Z</time>
      </trkpt>
      <trkpt lat="43.61694" lon="7.03943">
        <ele>142</ele>
        <time>2016-06-15T05:36:08Z</time>
      </trkpt>
      <trkpt lat="43.61679" lon="7.03971">
        <ele>143</ele>
        <time>2016-06-15T05:36:13Z</time>
      </trkpt>
      <trkpt lat="43.61678" lon="7.03995">
        <ele>143</ele>
        <time>2016-06-15T05:36:18Z</time>
      </trkpt>
      <trkpt lat="43.61673" lon="7.04031">
        <ele>143</ele>
        <time>2016-06-15T05:36:23Z</time>
      </trkpt>
      <trkpt lat="43.61663" lon="7.04067">
        <ele>143</ele>
        <time>2016-06-15T05:36:28Z</time>
      </trkpt>
      <trkpt lat="43.61649" lon="7.04089">
        <ele>143</ele>
        <time>2016-06-15T05:36:33Z</time>
      </trkpt>
      <trkpt lat="43.61629" lon="7.04116">
        <ele>143</ele>
        <time>2016-06-15T05:36:38Z</time>
      </trkpt>
      <trkpt lat="43.61618" lon="7.0415">
        <ele>143</ele>
        <time>2016-06-15T05:36:43Z</time>
      </trkpt>
      <trkpt lat="43.61626" lon="7.04189">
        <ele>143</ele>
        <time>2016-06-15T05:36:48Z</time>
      </trkpt>
      <trkpt lat="43.61629" lon="7.04227">
        <ele>143</ele>
        <time>2016-06-15T05:36:53Z</time>
      </trkpt>
      <trkpt lat="43.61633" lon="7.04273">
        <ele>143</ele>
        <time>2016-06-15T05:36:58Z</time>
      </trkpt>
      <trkpt lat="43.61636" lon="7.04318">
        <ele>144</ele>
        <time>2016-06-15T05:37:03Z</time>
      </trkpt>
      <trkpt lat="43.61626" lon="7.04348">
        <ele>144</ele>
        <time>2016-06-15T05:37:08Z</time>
      </trkpt>
      <trkpt lat="43.61626" lon="7.04392">
        <ele>144</ele>
        <time>2016-06-15T05:37:13Z</time>
      </trkpt>
      <trkpt lat="43.6164" lon="7.04431">
        <ele>145</ele>
        <time>2016-06-15T05:37:18Z</time>
      </trkpt>
      <trkpt lat="43.61655" lon="7.04471">
        <ele>145</ele>
        <time>2016-06-15T05:37:23Z</time>
      </trkpt>
      <trkpt lat="43.61657" lon="7.04483">
        <ele>146</ele>
        <time>2016-06-15T05:37:28Z</time>
      </trkpt>
      <trkpt lat="43.61647" lon="7.04473">
        <ele>147</ele>
        <time>2016-06-15T05:37:33Z</time>
      </trkpt>
      <trkpt lat="43.61642" lon="7.04459">
        <ele>148</ele>
        <time>2016-06-15T05:37:38Z</time>
      </trkpt>
      <trkpt lat="43.61639" lon="7.04451">
        <ele>149</ele>
        <time>2016-06-15T05:37:43Z</time>
      </trkpt>
      <trkpt lat="43.61631" lon="7.04437">
        <ele>151</ele>
        <time>2016-06-15T05:37:48Z</time>
      </trkpt>
      <trkpt lat="43.61626" lon="7.04433">
        <ele>153</ele>
        <time>2016-06-15T05:37:53Z</time>
      </trkpt>
      <trkpt lat="43.61617" lon="7.04425">
        <ele>155</ele>
        <time>2016-06-15T05:37:58Z</time>
      </trkpt>
      <trkpt lat="43.61612" lon="7.04424">
        <ele>156</ele>
        <time>2016-06-15T05:38:03Z</time>
      </trkpt>
      <trkpt lat="43.61606" lon="7.04425">
        <ele>158</ele>
        <time>2016-06-15T05:38:08Z</time>
      </trkpt>
      <trkpt lat="43.61602" lon="7.04425">
        <ele>159</ele>
        <time>2016-06-15T05:38:13Z</time>
      </trkpt>
      <trkpt lat="43.61597" lon="7.04426">
        <ele>161</ele>
        <time>2016-06-15T05:38:18Z</time>
      </trkpt>
      <trkpt lat="43.61588" lon="7.04422">
        <ele>162</ele>
        <time>2016-06-15T05:38:23Z</time>
      </trkpt>
      <trkpt lat="43.61584" lon="7.04416">
        <ele>162</ele>
        <time>2016-06-15T05:38:28Z</time>
      </trkpt>
      <trkpt lat="43.61582" lon="7.0441">
        <ele>163</ele>
        <time>2016-06-15T05:38:33Z</time>
      </trkpt>
      <trkpt lat="43.61579" lon="7.04395">
        <ele>163</ele>
        <time>2016-06-15T05:38:38Z</time>
      </trkpt>
      <trkpt lat="43.61573" lon="7.04384">
        <ele>163</ele>
        <time>2016-06-15T05:38:43Z</time>
      </trkpt>
      <trkpt lat="43.61558" lon="7.04368">
        <ele>163</ele>
        <time>2016-06-15T05:38:48Z</time>
      </trkpt>
      <trkpt lat="43.61546" lon="7.04364">
        <ele>163</ele>
        <time>2016-06-15T05:38:53Z</time>
      </trkpt>
      <trkpt lat="43.61524" lon="7.04364">
        <ele>163</ele>
        <time>2016-06-15T05:38:58Z</time>
      </trkpt>
      <trkpt lat="43.61506" lon="7.04371">
        <ele>163</ele>
        <time>2016-06-15T05:39:03Z</time>
      </trkpt>
      <trkpt lat="43.61484" lon="7.04386">
        <ele>163</ele>
        <time>2016-06-15T05:39:08Z</time>
      </trkpt>
      <trkpt lat="43.61472" lon="7.044">
        <ele>163</ele>
        <time>2016-06-15T05:39:13Z</time>
      </trkpt>
      <trkpt lat="43.61455" lon="7.04416">
        <ele>164</ele>
        <time>2016-06-15T05:39:18Z</time>
      </trkpt>
      <trkpt lat="43.61445" lon="7.04427">
        <ele>164</ele>
        <time>2016-06-15T05:39:23Z</time>
      </trkpt>
      <trkpt lat="43.61431" lon="7.0445">
        <ele>164</ele>
        <time>2016-06-15T05:39:28Z</time>
      </trkpt>
      <trkpt lat="43.6143" lon="7.04457">
        <ele>164</ele>
        <time>2016-06-15T05:39:33Z</time>
      </trkpt>
      <trkpt lat="43.6144" lon="7.04455">
        <ele>164</ele>
        <time>2016-06-15T05:39:38Z</time>
      </trkpt>
      <trkpt lat="43.61445" lon="7.04454">
        <ele>165</ele>
        <time>2016-06-15T05:39:43Z</time>
      </trkpt>
      <trkpt lat="43.6145" lon="7.04454">
        <ele>165</ele>
        <time>2016-06-15T05:39:48Z</time>
      </trkpt>
      <trkpt lat="43.61461" lon="7.04458">
        <ele>165</ele>
        <time>2016-06-15T05:39:53Z</time>
      </trkpt>
      <trkpt lat="43.61472" lon="7.04451">
        <ele>165</ele>
        <time>2016-06-15T05:39:58Z</time>
      </trkpt>
      <trkpt lat="43.61494" lon="7.04442">
        <ele>164</ele>
        <time>2016-06-15T05:40:03Z</time>
      </trkpt>
      <trkpt lat="43.61516" lon="7.04436">
        <ele>163</ele>
        <time>2016-06-15T05:40:08Z</time>
      </trkpt>
      <trkpt lat="43.61532" lon="7.04432">
        <ele>162</ele>
        <time>2016-06-15T05:40:13Z</time>
      </trkpt>
      <trkpt lat="43.61552" lon="7.0443">
        <ele>161</ele>
        <time>2016-06-15T05:40:18Z</time>
      </trkpt>
      <trkpt lat="43.61574" lon="7.0444">
        <ele>160</ele>
        <time>2016-06-15T05:40:23Z</time>
      </trkpt>
      <trkpt lat="43.61594" lon="7.04466">
        <ele>159</ele>
        <time>2016-06-15T05:40:28Z</time>
      </trkpt>
      <trkpt lat="43.61616" lon="7.04498">
        <ele>158</ele>
        <time>2016-06-15T05:40:33Z</time>
      </trkpt>
      <trkpt lat="43.61633" lon="7.04529">
        <ele>157</ele>
        <time>2016-06-15T05:40:38Z</time>
      </trkpt>
      <trkpt lat="43.61646" lon="7.04563">
        <ele>155</ele>
        <time>2016-06-15T05:40:43Z</time>
      </trkpt>
      <trkpt lat="43.61664" lon="7.04596">
        <ele>155</ele>
        <time>2016-06-15T05:40:48Z</time>
      </trkpt>
      <trkpt lat="43.6168" lon="7.04627">
        <ele>154</ele>
        <time>2016-06-15T05:40:53Z</time>
      </trkpt>
      <trkpt lat="43.61694" lon="7.04663">
        <ele>153</ele>
        <time>2016-06-15T05:40:58Z</time>
      </trkpt>
      <trkpt lat="43.61702" lon="7.04702">
        <ele>152</ele>
        <time>2016-06-15T05:41:03Z</time>
      </trkpt>
      <trkpt lat="43.61712" lon="7.04738">
        <ele>151</ele>
        <time>2016-06-15T05:41:08Z</time>
      </trkpt>
      <trkpt lat="43.61724" lon="7.04763">
        <ele>149</ele>
        <time>2016-06-15T05:41:13Z</time>
      </trkpt>
      <trkpt lat="43.61732" lon="7.04799">
        <ele>149</ele>
        <time>2016-06-15T05:41:18Z</time>
      </trkpt>
      <trkpt lat="43.61734" lon="7.04823">
        <ele>148</ele>
        <time>2016-06-15T05:41:23Z</time>
      </trkpt>
      <trkpt lat="43.61745" lon="7.04823">
        <ele>147</ele>
        <time>2016-06-15T05:41:28Z</time>
      </trkpt>
      <trkpt lat="43.61765" lon="7.04819">
        <ele>147</ele>
        <time>2016-06-15T05:41:33Z</time>
      </trkpt>
      <trkpt lat="43.61777" lon="7.0482">
        <ele>146</ele>
        <time>2016-06-15T05:41:38Z</time>
      </trkpt>
      <trkpt lat="43.61788" lon="7.0482">
        <ele>146</ele>
        <time>2016-06-15T05:41:43Z</time>
      </trkpt>
      <trkpt lat="43.61798" lon="7.04819">
        <ele>145</ele>
        <time>2016-06-15T05:41:48Z</time>
      </trkpt>
      <trkpt lat="43.61808" lon="7.04829">
        <ele>145</ele>
        <time>2016-06-15T05:41:53Z</time>
      </trkpt>
      <trkpt lat="43.61814" lon="7.04859">
        <ele>144</ele>
        <time>2016-06-15T05:41:58Z</time>
      </trkpt>
      <trkpt lat="43.61814" lon="7.04893">
        <ele>144</ele>
        <time>2016-06-15T05:42:03Z</time>
      </trkpt>
      <trkpt lat="43.61813" lon="7.04882">
        <ele>143</ele>
        <time>2016-06-15T05:42:08Z</time>
      </trkpt>
      <trkpt lat="43.61819" lon="7.04869">
        <ele>142</ele>
        <time>2016-06-15T05:42:13Z</time>
      </trkpt>
      <trkpt lat="43.61824" lon="7.04881">
        <ele>142</ele>
        <time>2016-06-15T05:42:18Z</time>
      </trkpt>
      <trkpt lat="43.61827" lon="7.04901">
        <ele>141</ele>
        <time>2016-06-15T05:42:23Z</time>
      </trkpt>
      <trkpt lat="43.61834" lon="7.04916">
        <ele>140</ele>
        <time>2016-06-15T05:42:28Z</time>
      </trkpt>
      <trkpt lat="43.61848" lon="7.04934">
        <ele>140</ele>
        <time>2016-06-15T05:42:33Z</time>
      </trkpt>
      <trkpt lat="43.61859" lon="7.0494">
        <ele>139</ele>
        <time>2016-06-15T05:42:38Z</time>
      </trkpt>
      <trkpt lat="43.61881" lon="7.04939">
        <ele>137</ele>
        <time>2016-06-15T05:42:43Z</time>
      </trkpt>
      <trkpt lat="43.61894" lon="7.04939">
        <ele>136</ele>
        <time>2016-06-15T05:42:48Z</time>
      </trkpt>
      <trkpt lat="43.61919" lon="7.04941">
        <ele>135</ele>
        <time>2016-06-15T05:42:53Z</time>
      </trkpt>
      <trkpt lat="43.61933" lon="7.04937">
        <ele>134</ele>
        <time>2016-06-15T05:42:58Z</time>
      </trkpt>
      <trkpt lat="43.61953" lon="7.0493">
        <ele>133</ele>
        <time>2016-06-15T05:43:03Z</time>
      </trkpt>
      <trkpt lat="43.61971" lon="7.04907">
        <ele>132</ele>
        <time>2016-06-15T05:43:08Z</time>
      </trkpt>
      <trkpt lat="43.61991" lon="7.04888">
        <ele>130</ele>
        <time>2016-06-15T05:43:13Z</time>
      </trkpt>
      <trkpt lat="43.62013" lon="7.04889">
        <ele>129</ele>
        <time>2016-06-15T05:43:18Z</time>
      </trkpt>
      <trkpt lat="43.62039" lon="7.04913">
        <ele>127</ele>
        <time>2016-06-15T05:43:23Z</time>
      </trkpt>
      <trkpt lat="43.62066" lon="7.04951">
        <ele>126</ele>
        <time>2016-06-15T05:43:28Z</time>
      </trkpt>
      <trkpt lat="43.62074" lon="7.04984">
        <ele>124</ele>
        <time>2016-06-15T05:43:33Z</time>
      </trkpt>
      <trkpt lat="43.62054" lon="7.05003">
        <ele>122</ele>
        <time>2016-06-15T05:43:38Z</time>
      </trkpt>
      <trkpt lat="43.62046" lon="7.05024">
        <ele>121</ele>
        <time>2016-06-15T05:43:43Z</time>
      </trkpt>
      <trkpt lat="43.62051" lon="7.05025">
        <ele>120</ele>
        <time>2016-06-15T05:43:48Z</time>
      </trkpt>
      <trkpt lat="43.62058" lon="7.05057">
        <ele>120</ele>
        <time>2016-06-15T05:43:53Z</time>
      </trkpt>
      <trkpt lat="43.62053" lon="7.051">
        <ele>120</ele>
        <time>2016-06-15T05:43:58Z</time>
      </trkpt>
      <trkpt lat="43.62046" lon="7.05145">
        <ele>121</ele>
        <time>2016-06-15T05:44:03Z</time>
      </trkpt>
      <trkpt lat="43.62044" lon="7.05186">
        <ele>122</ele>
        <time>2016-06-15T05:44:08Z</time>
      </trkpt>
      <trkpt lat="43.62041" lon="7.05228">
        <ele>123</ele>
        <time>2016-06-15T05:44:13Z</time>
      </trkpt>
      <trkpt lat="43.62038" lon="7.05275">
        <ele>124</ele>
        <time>2016-06-15T05:44:18Z</time>
      </trkpt>
      <trkpt lat="43.62038" lon="7.05318">
        <ele>125</ele>
        <time>2016-06-15T05:44:23Z</time>
      </trkpt>
      <trkpt lat="43.6204" lon="7.05352">
        <ele>126</ele>
        <time>2016-06-15T05:44:28Z</time>
      </trkpt>
      <trkpt lat="43.62042" lon="7.05384">
        <ele>127</ele>
        <time>2016-06-15T05:44:33Z</time>
      </trkpt>
      <trkpt lat="43.62048" lon="7.05416">
        <ele>128</ele>
        <time>2016-06-15T05:44:38Z</time>
      </trkpt>
      <trkpt lat="43.62057" lon="7.05441">
        <ele>128</ele>
        <time>2016-06-15T05:44:43Z</time>
      </trkpt>
      <trkpt lat="43.62085" lon="7.05437">
        <ele>129</ele>
        <time>2016-06-15T05:44:48Z</time>
      </trkpt>
      <trkpt lat="43.62114" lon="7.05439">
        <ele>129</ele>
        <time>2016-06-15T05:44:53Z</time>
      </trkpt>
      <trkpt lat="43.62132" lon="7.05464">
        <ele>129</ele>
        <time>2016-06-15T05:44:58Z</time>
      </trkpt>
      <trkpt lat="43.62141" lon="7.05501">
        <ele>129</ele>
        <time>2016-06-15T05:45:03Z</time>
      </trkpt>
      <trkpt lat="43.62157" lon="7.05534">
        <ele>129</ele>
        <time>2016-06-15T05:45:08Z</time>
      </trkpt>
      <trkpt lat="43.62181" lon="7.05557">
        <ele>129</ele>
        <time>2016-06-15T05:45:13Z</time>
      </trkpt>
      <trkpt lat="43.62198" lon="7.05577">
        <ele>128</ele>
        <time>2016-06-15T05:45:18Z</time>
      </trkpt>
      <trkpt lat="43.62221" lon="7.05569">
        <ele>128</ele>
        <time>2016-06-15T05:45:23Z</time>
      </trkpt>
      <trkpt lat="43.62233" lon="7.05551">
        <ele>127</ele>
        <time>2016-06-15T05:45:28Z</time>
      </trkpt>
      <trkpt lat="43.62231" lon="7.05543">
        <ele>126</ele>
        <time>2016-06-15T05:45:33Z</time>
      </trkpt>
      <trkpt lat="43.62221" lon="7.05524">
        <ele>124</ele>
        <time>2016-06-15T05:45:38Z</time>
      </trkpt>
      <trkpt lat="43.62212" lon="7.05517">
        <ele>123</ele>
        <time>2016-06-15T05:45:43Z</time>
      </trkpt>
      <trkpt lat="43.62191" lon="7.05512">
        <ele>122</ele>
        <time>2016-06-15T05:45:48Z</time>
      </trkpt>
      <trkpt lat="43.62176" lon="7.05501">
        <ele>120</ele>
        <time>2016-06-15T05:45:53Z</time>
      </trkpt>
      <trkpt lat="43.62162" lon="7.05473">
        <ele>119</ele>
        <time>2016-06-15T05:45:58Z</time>
      </trkpt>
      <trkpt lat="43.62148" lon="7.05449">
        <ele>118</ele>
        <time>2016-06-15T05:46:03Z</time>
      </trkpt>
      <trkpt lat="43.6213" lon="7.0542">
        <ele>117</ele>
        <time>2016-06-15T05:46:08Z</time>
      </trkpt>
      <trkpt lat="43.62106" lon="7.05398">
        <ele>117</ele>
        <time>2016-06-15T05:46:13Z</time>
      </trkpt>
      <trkpt lat="43.62091" lon="7.05371">
        <ele>117</ele>
        <time>2016-06-15T05:46:18Z</time>
      </trkpt>
      <trkpt lat="43.62086" lon="7.05349">
        <ele>116</ele>
        <time>2016-06-15T05:46:23Z</time>
      </trkpt>
      <trkpt lat="43.6208" lon="7.05317">
        <ele>116</ele>
        <time>2016-06-15T05:46:28Z</time>
      </trkpt>
      <trkpt lat="43.62081" lon="7.05296">
        <ele>117</ele>
        <time>2016-06-15T05:46:33Z</time>
      </trkpt>
      <trkpt lat="43.62087" lon="7.0527">
        <ele>117</ele>
        <time>2016-06-15T05:46:38Z</time>
      </trkpt>
      <trkpt lat="43.62091" lon="7.05256">
        <ele>117</ele>
        <time>2016-06-15T05:46:43Z</time>
      </trkpt>
      <trkpt lat="43.62095" lon="7.05242">
        <ele>117</ele>
        <time>2016-06-15T05:46:48Z</time>
      </trkpt>
      <trkpt lat="43.62099" lon="7.05228">
        <ele>118</ele>
        <time>2016-06-15T05:46:53Z</time>
      </trkpt>
      <trkpt lat="43.621" lon="7.05214">
        <ele>118</ele>
        <time>2016-06-15T05:46:58Z</time>
      </trkpt>
      <trkpt lat="43.62102" lon="7.05196">
        <ele>119</ele>
        <time>2016-06-15T05:47:03Z</time>
      </trkpt>
      <trkpt lat="43.62106" lon="7.05183">
        <ele>120</ele>
        <time>2016-06-15T05:47:08Z</time>
      </trkpt>
      <trkpt lat="43.6211" lon="7.05171">
        <ele>121</ele>
        <time>2016-06-15T05:47:13Z</time>
      </trkpt>
      <trkpt lat="43.62113" lon="7.05164">
        <ele>122</ele>
        <time>2016-06-15T05:47:18Z</time>
      </trkpt>
      <trkpt lat="43.62113" lon="7.05157">
        <ele>122</ele>
        <time>2016-06-15T05:47:23Z</time>
      </trkpt>
      <trkpt lat="43.62116" lon="7.05144">
        <ele>123</ele>
        <time>2016-06-15T05:47:28Z</time>
      </trkpt>
      <trkpt lat="43.62116" lon="7.05144">
        <ele>123</ele>
        <time>2016-06-15T05:47:33Z</time>
      </trkpt>
      <trkpt lat="43.6212" lon="7.0514">
        <ele>122</ele>
        <time>2016-06-15T05:47:38Z</time>
      </trkpt>
      <trkpt lat="43.62122" lon="7.05126">
        <ele>122</ele>
        <time>2016-06-15T05:47:43Z</time>
      </trkpt>
      <trkpt lat="43.62126" lon="7.05103">
        <ele>121</ele>
        <time>2016-06-15T05:47:48Z</time>
      </trkpt>
      <trkpt lat="43.62126" lon="7.05096">
        <ele>121</ele>
        <time>2016-06-15T05:47:53Z</time>
      </trkpt>
      <trkpt lat="43.62127" lon="7.05078">
        <ele>120</ele>
        <time>2016-06-15T05:47:58Z</time>
      </trkpt>
      <trkpt lat="43.62129" lon="7.0507">
        <ele>119</ele>
        <time>2016-06-15T05:48:03Z</time>
      </trkpt>
      <trkpt lat="43.62121" lon="7.05047">
        <ele>118</ele>
        <time>2016-06-15T05:48:08Z</time>
      </trkpt>
      <trkpt lat="43.62106" lon="7.05023">
        <ele>117</ele>
        <time>2016-06-15T05:48:13Z</time>
      </trkpt>
      <trkpt lat="43.62098" lon="7.04987">
        <ele>116</ele>
        <time>2016-06-15T05:48:18Z</time>
      </trkpt>
      <trkpt lat="43.62096" lon="7.04961">
        <ele>115</ele>
        <time>2016-06-15T05:48:23Z</time>
      </trkpt>
      <trkpt lat="43.621" lon="7.04943">
        <ele>114</ele>
        <time>2016-06-15T05:48:28Z</time>
      </trkpt>
      <trkpt lat="43.62099" lon="7.04934">
        <ele>113</ele>
        <time>2016-06-15T05:48:33Z</time>
      </trkpt>
      <trkpt lat="43.62107" lon="7.04938">
        <ele>112</ele>
        <time>2016-06-15T05:48:38Z</time>
      </trkpt>
      <trkpt lat="43.62116" lon="7.04948">
        <ele>111</ele>
        <time>2016-06-15T05:48:43Z</time>
      </trkpt>
      <trkpt lat="43.6212" lon="7.04953">
        <ele>110</ele>
        <time>2016-06-15T05:48:48Z</time>
      </trkpt>
      <trkpt lat="43.62123" lon="7.04942">
        <ele>110</ele>
        <time>2016-06-15T05:48:53Z</time>
      </trkpt>
      <trkpt lat="43.6212" lon="7.04925">
        <ele>110</ele>
        <time>2016-06-15T05:48:58Z</time>
      </trkpt>
      <trkpt lat="43.62115" lon="7.04901">
        <ele>110</ele>
        <time>2016-06-15T05:49:03Z</time>
      </trkpt>
      <trkpt lat="43.62109" lon="7.04884">
        <ele>110</ele>
        <time>2016-06-15T05:49:08Z</time>
      </trkpt>
      <trkpt lat="43.62092" lon="7.04858">
        <ele>109</ele>
        <time>2016-06-15T05:49:13Z</time>
      </trkpt>
      <trkpt lat="43.62062" lon="7.04842">
        <ele>109</ele>
        <time>2016-06-15T05:49:18Z</time>
      </trkpt>
      <trkpt lat="43.62031" lon="7.0482">
        <ele>110</ele>
        <time>2016-06-15T05:49:23Z</time>
      </trkpt>
      <trkpt lat="43.62016" lon="7.04817">
        <ele>110</ele>
        <time>2016-06-15T05:49:28Z</time>
      </trkpt>
      <trkpt lat="43.61988" lon="7.04816">
        <ele>111</ele>
        <time>2016-06-15T05:49:33Z</time>
      </trkpt>
      <trkpt lat="43.61965" lon="7.04796">
        <ele>112</ele>
        <time>2016-06-15T05:49:38Z</time>
      </trkpt>
      <trkpt lat="43.61936" lon="7.04784">
        <ele>113</ele>
        <time>2016-06-15T05:49:43Z</time>
      </trkpt>
      <trkpt lat="43.61909" lon="7.04761">
        <ele>113</ele>
        <time>2016-06-15T05:49:48Z</time>
      </trkpt>
      <trkpt lat="43.61903" lon="7.04728">
        <ele>115</ele>
        <time>2016-06-15T05:49:53Z</time>
      </trkpt>
      <trkpt lat="43.61905" lon="7.04704">
        <ele>116</ele>
        <time>2016-06-15T05:49:58Z</time>
      </trkpt>
      <trkpt lat="43.61909" lon="7.0467">
        <ele>117</ele>
        <time>2016-06-15T05:50:03Z</time>
      </trkpt>
      <trkpt lat="43.61909" lon="7.04634">
        <ele>119</ele>
        <time>2016-06-15T05:50:08Z</time>
      </trkpt>
      <trkpt lat="43.619" lon="7.04595">
        <ele>121</ele>
        <time>2016-06-15T05:50:13Z</time>
      </trkpt>
      <trkpt lat="43.61884" lon="7.04564">
        <ele>122</ele>
        <time>2016-06-15T05:50:18Z</time>
      </trkpt>
      <trkpt lat="43.61878" lon="7.04549">
        <ele>124</ele>
        <time>2016-06-15T05:50:23Z</time>
      </trkpt>
      <trkpt lat="43.61872" lon="7.04534">
        <ele>126</ele>
        <time>2016-06-15T05:50:28Z</time>
      </trkpt>
      <trkpt lat="43.61863" lon="7.04524">
        <ele>127</ele>
        <time>2016-06-15T05:50:33Z</time>
      </trkpt>
      <trkpt lat="43.61852" lon="7.04512">
        <ele>129</ele>
        <time>2016-06-15T05:50:38Z</time>
      </trkpt>
      <trkpt lat="43.61834" lon="7.04493">
        <ele>130</ele>
        <time>2016-06-15T05:50:43Z</time>
      </trkpt>
      <trkpt lat="43.61809" lon="7.04482">
        <ele>131</ele>
        <time>2016-06-15T05:50:48Z</time>
      </trkpt>
      <trkpt lat="43.61783" lon="7.04479">
        <ele>132</ele>
        <time>2016-06-15T05:50:53Z</time>
      </trkpt>
      <trkpt lat="43.61754" lon="7.04473">
        <ele>132</ele>
        <time>2016-06-15T05:50:58Z</time>
      </trkpt>
      <trkpt lat="43.61728" lon="7.04452">
        <ele>132</ele>
        <time>2016-06-15T05:51:03Z</time>
      </trkpt>
      <trkpt lat="43.61719" lon="7.04414">
        <ele>133</ele>
        <time>2016-06-15T05:51:08Z</time>
      </trkpt>
      <trkpt lat="43.61725" lon="7.04373">
        <ele>132</ele>
        <time>2016-06-15T05:51:13Z</time>
      </trkpt>
      <trkpt lat="43.6173" lon="7.04341">
        <ele>132</ele>
        <time>2016-06-15T05:51:18Z</time>
      </trkpt>
      <trkpt lat="43.61729" lon="7.04307">
        <ele>132</ele>
        <time>2016-06-15T05:51:23Z</time>
      </trkpt>
      <trkpt lat="43.61716" lon="7.04273">
        <ele>131</ele>
        <time>2016-06-15T05:51:28Z</time>
      </trkpt>
      <trkpt lat="43.61694" lon="7.04241">
        <ele>131</ele>
        <time>2016-06-15T05:51:33Z</time>
      </trkpt>
      <trkpt lat="43.61674" lon="7.04223">
        <ele>130</ele>
        <time>2016-06-15T05:51:38Z</time>
      </trkpt>
      <trkpt lat="43.61673" lon="7.04206">
        <ele>129</ele>
        <time>2016-06-15T05:51:43Z</time>
      </trkpt>
      <trkpt lat="43.61681" lon="7.0419">
        <ele>128</ele>
        <time>2016-06-15T05:51:48Z</time>
      </trkpt>
      <trkpt lat="43.61678" lon="7.04177">
        <ele>128</ele>
        <time>2016-06-15T05:51:53Z</time>
      </trkpt>
      <trkpt lat="43.61667" lon="7.0418">
        <ele>127</ele>
        <time>2016-06-15T05:51:58Z</time>
      </trkpt>
      <trkpt lat="43.61663" lon="7.04168">
        <ele>127</ele>
        <time>2016-06-15T05:52:03Z</time>
      </trkpt>
      <trkpt lat="43.61669" lon="7.04167">
        <ele>127</ele>
        <time>2016-06-15T05:52:08Z</time>
      </trkpt>
      <trkpt lat="43.61669" lon="7.04167">
        <ele>126</ele>
        <time>2016-06-15T05:52:13Z</time>
      </trkpt>
      <trkpt lat="43.61669" lon="7.04167">
        <ele>126</ele>
        <time>2016-06-15T05:52:18Z</time>
      </trkpt>
      <trkpt lat="43.61671" lon="7.04173">
        <ele>126</ele>
        <time>2016-06-15T05:52:23Z</time>
      </trkpt>
      <trkpt lat="43.61671" lon="7.04173">
        <ele>126</ele>
        <time>2016-06-15T05:52:28Z</time>
      </trkpt>
      <trkpt lat="43.61671" lon="7.04173">
        <ele>126</ele>
        <time>2016-06-15T05:52:33Z</time>
      </trkpt>
      <trkpt lat="43.61671" lon="7.04173">
        <ele>126</ele>
        <time>2016-06-15T05:52:38Z</time>
      </trkpt>
      <trkpt lat="43.61671" lon="7.04173">
        <ele>126</ele>
        <time>2016-06-15T05:52:43Z</time>
      </trkpt>
      <trkpt lat="43.61671" lon="7.04173">
        <ele>126</ele>
        <time>2016-06-15T05:52:48Z</time>
      </trkpt>
      <trkpt lat="43.61671" lon="7.04173">
        <ele>126</ele>
        <time>2016-06-15T05:52:53Z</time>
      </trkpt>
      <trkpt lat="43.61671" lon="7.04173">
        <ele>126</ele>
        <time>2016-06-15T05:52:58Z</time>
      </trkpt>
      <trkpt lat="43.61671" lon="7.04173">
        <ele>127</ele>
        <time>2016-06-15T05:53:03Z</time>
      </trkpt>
      <trkpt lat="43.61671" lon="7.04173">
        <ele>127</ele>
        <time>2016-06-15T05:53:08Z</time>
      </trkpt>
      <trkpt lat="43.61671" lon="7.04173">
        <ele>127</ele>
        <time>2016-06-15T05:53:13Z</time>
      </trkpt>
      <trkpt lat="43.61671" lon="7.04173">
        <ele>127</ele>
        <time>2016-06-15T05:53:18Z</time>
      </trkpt>
      <trkpt lat="43.61671" lon="7.04173">
        <ele>127</ele>
        <time>2016-06-15T05:53:23Z</time>
      </trkpt>
      <trkpt lat="43.61671" lon="7.04173">
        <ele>127</ele>
        <time>2016-06-15T05:53:28Z</time>
      </trkpt>
      <trkpt lat="43.61671" lon="7.04173">
        <ele>127</ele>
        <time>2016-06-15T05:53:33Z</time>
      </trkpt>
      <trkpt lat="43.61671" lon="7.04173">
        <ele>126</ele>
        <time>2016-06-15T05:53:38Z</time>
      </trkpt>
      <trkpt lat="43.61671" lon="7.04173">
        <ele>126</ele>
        <time>2016-06-15T05:53:43Z</time>
      </trkpt>
      <trkpt lat="43.61671" lon="7.04173">
        <ele>126</ele>
        <time>2016-06-15T05:53:48Z</time>
      </trkpt>
      <trkpt lat="43.61671" lon="7.04173">
        <ele>126</ele>
        <time>2016-06-15T05:53:53Z</time>
      </trkpt>
      <trkpt lat="43.61671" lon="7.04173">
        <ele>126</ele>
        <time>2016-06-15T05:53:58Z</time>
      </trkpt>
      <trkpt lat="43.61671" lon="7.04173">
        <ele>126</ele>
        <time>2016-06-15T05:54:03Z</time>
      </trkpt>
      <trkpt lat="43.61671" lon="7.04173">
        <ele>126</ele>
        <time>2016-06-15T05:54:08Z</time>
      </trkpt>
      <trkpt lat="43.61671" lon="7.04173">
        <ele>126</ele>
        <time>2016-06-15T05:54:13Z</time>
      </trkpt>
      <trkpt lat="43.61674" lon="7.04179">
        <ele>126</ele>
        <time>2016-06-15T05:54:18Z</time>
      </trkpt>
      <trkpt lat="43.61674" lon="7.04179">
        <ele>126</ele>
        <time>2016-06-15T05:54:23Z</time>
      </trkpt>
      <trkpt lat="43.61674" lon="7.04179">
        <ele>126</ele>
        <time>2016-06-15T05:54:28Z</time>
      </trkpt>
      <trkpt lat="43.61673" lon="7.04185">
        <ele>127</ele>
        <time>2016-06-15T05:54:33Z</time>
      </trkpt>
      <trkpt lat="43.61673" lon="7.04185">
        <ele>127</ele>
        <time>2016-06-15T05:54:38Z</time>
      </trkpt>
      <trkpt lat="43.61673" lon="7.04185">
        <ele>127</ele>
        <time>2016-06-15T05:54:43Z</time>
      </trkpt>
      <trkpt lat="43.61673" lon="7.04185">
        <ele>127</ele>
        <time>2016-06-15T05:54:48Z</time>
      </trkpt>
      <trkpt lat="43.61673" lon="7.04185">
        <ele>127</ele>
        <time>2016-06-15T05:54:53Z</time>
      </trkpt>
      <trkpt lat="43.61673" lon="7.04185">
        <ele>127</ele>
        <time>2016-06-15T05:54:58Z</time>
      </trkpt>
      <trkpt lat="43.61673" lon="7.04185">
        <ele>127</ele>
        <time>2016-06-15T05:55:03Z</time>
      </trkpt>
      <trkpt lat="43.6167" lon="7.04191">
        <ele>127</ele>
        <time>2016-06-15T05:55:08Z</time>
      </trkpt>
      <trkpt lat="43.6167" lon="7.04191">
        <ele>127</ele>
        <time>2016-06-15T05:55:13Z</time>
      </trkpt>
      <trkpt lat="43.6167" lon="7.04191">
        <ele>127</ele>
        <time>2016-06-15T05:55:18Z</time>
      </trkpt>
      <trkpt lat="43.6167" lon="7.04191">
        <ele>127</ele>
        <time>2016-06-15T05:55:23Z</time>
      </trkpt>
      <trkpt lat="43.6167" lon="7.04191">
        <ele>128</ele>
        <time>2016-06-15T05:55:28Z</time>
      </trkpt>
      <trkpt lat="43.6167" lon="7.04191">
        <ele>128</ele>
        <time>2016-06-15T05:55:33Z</time>
      </trkpt>
      <trkpt lat="43.61675" lon="7.0419">
        <ele>128</ele>
        <time>2016-06-15T05:55:38Z</time>
      </trkpt>
      <trkpt lat="43.61675" lon="7.0419">
        <ele>128</ele>
        <time>2016-06-15T05:55:43Z</time>
      </trkpt>
      <trkpt lat="43.61675" lon="7.0419">
        <ele>128</ele>
        <time>2016-06-15T05:55:48Z</time>
      </trkpt>
      <trkpt lat="43.61675" lon="7.0419">
        <ele>128</ele>
        <time>2016-06-15T05:55:53Z</time>
      </trkpt>
      <trkpt lat="43.61675" lon="7.0419">
        <ele>128</ele>
        <time>2016-06-15T05:55:58Z</time>
      </trkpt>
      <trkpt lat="43.61675" lon="7.0419">
        <ele>128</ele>
        <time>2016-06-15T05:56:03Z</time>
      </trkpt>
      <trkpt lat="43.61675" lon="7.0419">
        <ele>128</ele>
        <time>2016-06-15T05:56:08Z</time>
      </trkpt>
      <trkpt lat="43.61675" lon="7.0419">
        <ele>128</ele>
        <time>2016-06-15T05:56:13Z</time>
      </trkpt>
      <trkpt lat="43.61675" lon="7.0419">
        <ele>128</ele>
        <time>2016-06-15T05:56:18Z</time>
      </trkpt>
      <trkpt lat="43.61675" lon="7.0419">
        <ele>128</ele>
        <time>2016-06-15T05:56:23Z</time>
      </trkpt>
      <trkpt lat="43.61675" lon="7.0419">
        <ele>128</ele>
        <time>2016-06-15T05:56:28Z</time>
      </trkpt>
      <trkpt lat="43.6167" lon="7.04191">
        <ele>128</ele>
        <time>2016-06-15T05:56:33Z</time>
      </trkpt>
      <trkpt lat="43.6167" lon="7.04191">
        <ele>128</ele>
        <time>2016-06-15T05:56:38Z</time>
      </trkpt>
      <trkpt lat="43.6167" lon="7.04191">
        <ele>128</ele>
        <time>2016-06-15T05:56:43Z</time>
      </trkpt>
      <trkpt lat="43.61672" lon="7.04184">
        <ele>128</ele>
        <time>2016-06-15T05:56:48Z</time>
      </trkpt>
      <trkpt lat="43.61669" lon="7.04178">
        <ele>128</ele>
        <time>2016-06-15T05:56:53Z</time>
      </trkpt>
      <trkpt lat="43.61667" lon="7.04172">
        <ele>129</ele>
        <time>2016-06-15T05:56:58Z</time>
      </trkpt>
      <trkpt lat="43.61667" lon="7.04172">
        <ele>129</ele>
        <time>2016-06-15T05:57:03Z</time>
      </trkpt>
      <trkpt lat="43.61667" lon="7.04172">
        <ele>129</ele>
        <time>2016-06-15T05:57:08Z</time>
      </trkpt>
      <trkpt lat="43.61667" lon="7.04172">
        <ele>129</ele>
        <time>2016-06-15T05:57:13Z</time>
      </trkpt>
      <trkpt lat="43.61667" lon="7.04172">
        <ele>129</ele>
        <time>2016-06-15T05:57:18Z</time>
      </trkpt>
      <trkpt lat="43.61667" lon="7.04172">
        <ele>129</ele>
        <time>2016-06-15T05:57:23Z</time>
      </trkpt>
      <trkpt lat="43.61667" lon="7.04172">
        <ele>129</ele>
        <time>2016-06-15T05:57:28Z</time>
      </trkpt>
      <trkpt lat="43.61667" lon="7.04179">
        <ele>129</ele>
        <time>2016-06-15T05:57:33Z</time>
      </trkpt>
      <trkpt lat="43.61667" lon="7.04179">
        <ele>129</ele>
        <time>2016-06-15T05:57:38Z</time>
      </trkpt>
      <trkpt lat="43.61668" lon="7.04186">
        <ele>129</ele>
        <time>2016-06-15T05:57:43Z</time>
      </trkpt>
      <trkpt lat="43.61668" lon="7.04186">
        <ele>129</ele>
        <time>2016-06-15T05:57:48Z</time>
      </trkpt>
      <trkpt lat="43.61673" lon="7.04185">
        <ele>129</ele>
        <time>2016-06-15T05:57:53Z</time>
      </trkpt>
      <trkpt lat="43.61673" lon="7.04185">
        <ele>129</ele>
        <time>2016-06-15T05:57:58Z</time>
      </trkpt>
      <trkpt lat="43.61673" lon="7.04185">
        <ele>129</ele>
        <time>2016-06-15T05:58:03Z</time>
      </trkpt>
      <trkpt lat="43.61673" lon="7.04185">
        <ele>129</ele>
        <time>2016-06-15T05:58:08Z</time>
      </trkpt>
      <trkpt lat="43.61673" lon="7.04185">
        <ele>129</ele>
        <time>2016-06-15T05:58:13Z</time>
      </trkpt>
      <trkpt lat="43.61673" lon="7.04185">
        <ele>129</ele>
        <time>2016-06-15T05:58:18Z</time>
      </trkpt>
      <trkpt lat="43.61673" lon="7.04185">
        <ele>129</ele>
        <time>2016-06-15T05:58:23Z</time>
      </trkpt>
      <trkpt lat="43.61673" lon="7.04185">
        <ele>129</ele>
        <time>2016-06-15T05:58:28Z</time>
      </trkpt>
      <trkpt lat="43.61673" lon="7.04185">
        <ele>130</ele>
        <time>2016-06-15T05:58:33Z</time>
      </trkpt>
      <trkpt lat="43.61673" lon="7.04185">
        <ele>130</ele>
        <time>2016-06-15T05:58:38Z</time>
      </trkpt>
      <trkpt lat="43.61673" lon="7.04185">
        <ele>130</ele>
        <time>2016-06-15T05:58:43Z</time>
      </trkpt>
      <trkpt lat="43.61673" lon="7.04185">
        <ele>130</ele>
        <time>2016-06-15T05:58:48Z</time>
      </trkpt>
      <trkpt lat="43.61673" lon="7.04185">
        <ele>130</ele>
        <time>2016-06-15T05:58:53Z</time>
      </trkpt>
      <trkpt lat="43.61673" lon="7.04185">
        <ele>130</ele>
        <time>2016-06-15T05:58:58Z</time>
      </trkpt>
      <trkpt lat="43.61673" lon="7.04185">
        <ele>130</ele>
        <time>2016-06-15T05:59:03Z</time>
      </trkpt>
      <trkpt lat="43.61673" lon="7.04185">
        <ele>130</ele>
        <time>2016-06-15T05:59:08Z</time>
      </trkpt>
      <trkpt lat="43.61673" lon="7.04185">
        <ele>130</ele>
        <time>2016-06-15T05:59:13Z</time>
      </trkpt>
      <trkpt lat="43.61673" lon="7.04185">
        <ele>130</ele>
        <time>2016-06-15T05:59:18Z</time>
      </trkpt>
      <trkpt lat="43.61673" lon="7.04185">
        <ele>130</ele>
        <time>2016-06-15T05:59:23Z</time>
      </trkpt>
      <trkpt lat="43.61676" lon="7.04189">
        <ele>130</ele>
        <time>2016-06-15T05:59:28Z</time>
      </trkpt>
      <trkpt lat="43.61676" lon="7.04189">
        <ele>130</ele>
        <time>2016-06-15T05:59:33Z</time>
      </trkpt>
      <trkpt lat="43.61676" lon="7.04189">
        <ele>130</ele>
        <time>2016-06-15T05:59:38Z</time>
      </trkpt>
      <trkpt lat="43.61676" lon="7.04189">
        <ele>130</ele>
        <time>2016-06-15T05:59:43Z</time>
      </trkpt>
      <trkpt lat="43.61676" lon="7.04189">
        <ele>130</ele>
        <time>2016-06-15T05:59:48Z</time>
      </trkpt>
      <trkpt lat="43.61676" lon="7.04189">
        <ele>130</ele>
        <time>2016-06-15T05:59:53Z</time>
      </trkpt>
      <trkpt lat="43.61676" lon="7.04189">
        <ele>130</ele>
        <time>2016-06-15T05:59:58Z</time>
      </trkpt>
      <trkpt lat="43.61676" lon="7.04189">
        <ele>130</ele>
        <time>2016-06-15T06:00:03Z</time>
      </trkpt>
      <trkpt lat="43.61676" lon="7.04189">
        <ele>130</ele>
        <time>2016-06-15T06:00:08Z</time>
      </trkpt>
      <trkpt lat="43.61676" lon="7.04189">
        <ele>130</ele>
        <time>2016-06-15T06:00:13Z</time>
      </trkpt>
      <trkpt lat="43.61676" lon="7.04189">
        <ele>130</ele>
        <time>2016-06-15T06:00:18Z</time>
      </trkpt>
      <trkpt lat="43.61676" lon="7.04189">
        <ele>130</ele>
        <time>2016-06-15T06:00:23Z</time>
      </trkpt>
      <trkpt lat="43.61676" lon="7.04189">
        <ele>130</ele>
        <time>2016-06-15T06:00:28Z</time>
      </trkpt>
      <trkpt lat="43.61676" lon="7.04189">
        <ele>130</ele>
        <time>2016-06-15T06:00:33Z</time>
      </trkpt>
      <trkpt lat="43.61676" lon="7.04189">
        <ele>130</ele>
        <time>2016-06-15T06:00:38Z</time>
      </trkpt>
      <trkpt lat="43.61676" lon="7.04189">
        <ele>130</ele>
        <time>2016-06-15T06:00:43Z</time>
      </trkpt>
      <trkpt lat="43.61672" lon="7.0419">
        <ele>130</ele>
        <time>2016-06-15T06:00:48Z</time>
      </trkpt>
      <trkpt lat="43.61672" lon="7.0419">
        <ele>130</ele>
        <time>2016-06-15T06:00:53Z</time>
      </trkpt>
      <trkpt lat="43.61672" lon="7.04196">
        <ele>130</ele>
        <time>2016-06-15T06:00:58Z</time>
      </trkpt>
      <trkpt lat="43.61672" lon="7.04196">
        <ele>131</ele>
        <time>2016-06-15T06:01:03Z</time>
      </trkpt>
      <trkpt lat="43.61672" lon="7.04196">
        <ele>131</ele>
        <time>2016-06-15T06:01:08Z</time>
      </trkpt>
      <trkpt lat="43.61672" lon="7.04196">
        <ele>131</ele>
        <time>2016-06-15T06:01:13Z</time>
      </trkpt>
      <trkpt lat="43.61672" lon="7.04196">
        <ele>131</ele>
        <time>2016-06-15T06:01:18Z</time>
      </trkpt>
      <trkpt lat="43.61672" lon="7.04196">
        <ele>131</ele>
        <time>2016-06-15T06:01:23Z</time>
      </trkpt>
      <trkpt lat="43.61672" lon="7.04196">
        <ele>131</ele>
        <time>2016-06-15T06:01:28Z</time>
      </trkpt>
      <trkpt lat="43.61672" lon="7.04196">
        <ele>132</ele>
        <time>2016-06-15T06:01:33Z</time>
      </trkpt>
      <trkpt lat="43.61674" lon="7.04203">
        <ele>132</ele>
        <time>2016-06-15T06:01:38Z</time>
      </trkpt>
      <trkpt lat="43.61674" lon="7.04203">
        <ele>132</ele>
        <time>2016-06-15T06:01:43Z</time>
      </trkpt>
      <trkpt lat="43.61674" lon="7.04203">
        <ele>132</ele>
        <time>2016-06-15T06:01:48Z</time>
      </trkpt>
      <trkpt lat="43.61674" lon="7.04203">
        <ele>132</ele>
        <time>2016-06-15T06:01:53Z</time>
      </trkpt>
      <trkpt lat="43.61674" lon="7.04195">
        <ele>132</ele>
        <time>2016-06-15T06:01:58Z</time>
      </trkpt>
      <trkpt lat="43.61675" lon="7.04189">
        <ele>132</ele>
        <time>2016-06-15T06:02:03Z</time>
      </trkpt>
      <trkpt lat="43.61672" lon="7.04182">
        <ele>132</ele>
        <time>2016-06-15T06:02:08Z</time>
      </trkpt>
      <trkpt lat="43.61666" lon="7.04184">
        <ele>132</ele>
        <time>2016-06-15T06:02:13Z</time>
      </trkpt>
      <trkpt lat="43.61656" lon="7.04192">
        <ele>132</ele>
        <time>2016-06-15T06:02:18Z</time>
      </trkpt>
      <trkpt lat="43.61656" lon="7.04199">
        <ele>132</ele>
        <time>2016-06-15T06:02:23Z</time>
      </trkpt>
      <trkpt lat="43.61662" lon="7.04212">
        <ele>131</ele>
        <time>2016-06-15T06:02:28Z</time>
      </trkpt>
      <trkpt lat="43.61659" lon="7.04206">
        <ele>131</ele>
        <time>2016-06-15T06:02:33Z</time>
      </trkpt>
      <trkpt lat="43.61651" lon="7.04196">
        <ele>131</ele>
        <time>2016-06-15T06:02:38Z</time>
      </trkpt>
      <trkpt lat="43.61654" lon="7.04184">
        <ele>130</ele>
        <time>2016-06-15T06:02:43Z</time>
      </trkpt>
      <trkpt lat="43.61665" lon="7.04183">
        <ele>130</ele>
        <time>2016-06-15T06:02:48Z</time>
      </trkpt>
      <trkpt lat="43.61676" lon="7.0418">
        <ele>130</ele>
        <time>2016-06-15T06:02:53Z</time>
      </trkpt>
      <trkpt lat="43.6168" lon="7.04186">
        <ele>129</ele>
        <time>2016-06-15T06:02:58Z</time>
      </trkpt>
      <trkpt lat="43.61684" lon="7.04201">
        <ele>129</ele>
        <time>2016-06-15T06:03:03Z</time>
      </trkpt>
      <trkpt lat="43.61684" lon="7.04201">
        <ele>129</ele>
        <time>2016-06-15T06:03:08Z</time>
      </trkpt>
      <trkpt lat="43.61685" lon="7.04195">
        <ele>129</ele>
        <time>2016-06-15T06:03:13Z</time>
      </trkpt>
      <trkpt lat="43.61685" lon="7.04195">
        <ele>128</ele>
        <time>2016-06-15T06:03:18Z</time>
      </trkpt>
      <trkpt lat="43.61684" lon="7.04207">
        <ele>128</ele>
        <time>2016-06-15T06:03:23Z</time>
      </trkpt>
      <trkpt lat="43.61683" lon="7.04214">
        <ele>128</ele>
        <time>2016-06-15T06:03:28Z</time>
      </trkpt>
      <trkpt lat="43.61683" lon="7.04214">
        <ele>128</ele>
        <time>2016-06-15T06:03:33Z</time>
      </trkpt>
      <trkpt lat="43.61684" lon="7.04207">
        <ele>128</ele>
        <time>2016-06-15T06:03:38Z</time>
      </trkpt>
      <trkpt lat="43.61686" lon="7.04201">
        <ele>128</ele>
        <time>2016-06-15T06:03:43Z</time>
      </trkpt>
      <trkpt lat="43.61686" lon="7.04201">
        <ele>128</ele>
        <time>2016-06-15T06:03:48Z</time>
      </trkpt>
      <trkpt lat="43.61683" lon="7.04207">
        <ele>128</ele>
        <time>2016-06-15T06:03:53Z</time>
      </trkpt>
      <trkpt lat="43.61683" lon="7.04214">
        <ele>129</ele>
        <time>2016-06-15T06:03:58Z</time>
      </trkpt>
      <trkpt lat="43.61685" lon="7.04207">
        <ele>129</ele>
        <time>2016-06-15T06:04:03Z</time>
      </trkpt>
      <trkpt lat="43.61685" lon="7.04207">
        <ele>129</ele>
        <time>2016-06-15T06:04:08Z</time>
      </trkpt>
      <trkpt lat="43.61685" lon="7.04207">
        <ele>129</ele>
        <time>2016-06-15T06:04:13Z</time>
      </trkpt>
      <trkpt lat="43.61683" lon="7.04215">
        <ele>129</ele>
        <time>2016-06-15T06:04:18Z</time>
      </trkpt>
      <trkpt lat="43.61683" lon="7.04215">
        <ele>129</ele>
        <time>2016-06-15T06:04:23Z</time>
      </trkpt>
      <trkpt lat="43.61685" lon="7.04208">
        <ele>129</ele>
        <time>2016-06-15T06:04:28Z</time>
      </trkpt>
      <trkpt lat="43.61685" lon="7.04208">
        <ele>129</ele>
        <time>2016-06-15T06:04:33Z</time>
      </trkpt>
      <trkpt lat="43.61682" lon="7.04202">
        <ele>129</ele>
        <time>2016-06-15T06:04:38Z</time>
      </trkpt>
      <trkpt lat="43.61682" lon="7.04202">
        <ele>129</ele>
        <time>2016-06-15T06:04:43Z</time>
      </trkpt>
      <trkpt lat="43.61682" lon="7.04202">
        <ele>130</ele>
        <time>2016-06-15T06:04:48Z</time>
      </trkpt>
      <trkpt lat="43.61682" lon="7.04202">
        <ele>130</ele>
        <time>2016-06-15T06:04:53Z</time>
      </trkpt>
      <trkpt lat="43.61682" lon="7.04202">
        <ele>130</ele>
        <time>2016-06-15T06:04:58Z</time>
      </trkpt>
      <trkpt lat="43.61682" lon="7.04202">
        <ele>130</ele>
        <time>2016-06-15T06:05:03Z</time>
      </trkpt>
      <trkpt lat="43.61682" lon="7.04202">
        <ele>130</ele>
        <time>2016-06-15T06:05:08Z</time>
      </trkpt>
      <trkpt lat="43.61682" lon="7.04202">
        <ele>130</ele>
        <time>2016-06-15T06:05:13Z</time>
      </trkpt>
      <trkpt lat="43.61682" lon="7.04202">
        <ele>130</ele>
        <time>2016-06-15T06:05:18Z</time>
      </trkpt>
      <trkpt lat="43.61682" lon="7.04202">
        <ele>130</ele>
        <time>2016-06-15T06:05:23Z</time>
      </trkpt>
      <trkpt lat="43.61682" lon="7.04202">
        <ele>130</ele>
        <time>2016-06-15T06:05:28Z</time>
      </trkpt>
      <trkpt lat="43.61682" lon="7.04202">
        <ele>130</ele>
        <time>2016-06-15T06:05:33Z</time>
      </trkpt>
      <trkpt lat="43.61682" lon="7.04202">
        <ele>130</ele>
        <time>2016-06-15T06:05:38Z</time>
      </trkpt>
      <trkpt lat="43.61682" lon="7.04202">
        <ele>130</ele>
        <time>2016-06-15T06:05:43Z</time>
      </trkpt>
      <trkpt lat="43.61682" lon="7.04202">
        <ele>130</ele>
        <time>2016-06-15T06:05:48Z</time>
      </trkpt>
      <trkpt lat="43.61682" lon="7.04202">
        <ele>130</ele>
        <time>2016-06-15T06:05:53Z</time>
      </trkpt>
      <trkpt lat="43.61682" lon="7.04202">
        <ele>130</ele>
        <time>2016-06-15T06:05:58Z</time>
      </trkpt>
      <trkpt lat="43.61682" lon="7.04202">
        <ele>131</ele>
        <time>2016-06-15T06:06:03Z</time>
      </trkpt>
      <trkpt lat="43.61682" lon="7.04202">
        <ele>131</ele>
        <time>2016-06-15T06:06:08Z</time>
      </trkpt>
      <trkpt lat="43.61682" lon="7.04202">
        <ele>131</ele>
        <time>2016-06-15T06:06:13Z</time>
      </trkpt>
      <trkpt lat="43.61682" lon="7.04202">
        <ele>131</ele>
        <time>2016-06-15T06:06:18Z</time>
      </trkpt>
      <trkpt lat="43.61682" lon="7.04202">
        <ele>130</ele>
        <time>2016-06-15T06:06:23Z</time>
      </trkpt>
      <trkpt lat="43.61682" lon="7.04202">
        <ele>130</ele>
        <time>2016-06-15T06:06:28Z</time>
      </trkpt>
      <trkpt lat="43.61683" lon="7.04216">
        <ele>130</ele>
        <time>2016-06-15T06:06:33Z</time>
      </trkpt>
      <trkpt lat="43.61684" lon="7.04223">
        <ele>130</ele>
        <time>2016-06-15T06:06:38Z</time>
      </trkpt>
      <trkpt lat="43.61684" lon="7.04214">
        <ele>130</ele>
        <time>2016-06-15T06:06:43Z</time>
      </trkpt>
      <trkpt lat="43.61685" lon="7.04207">
        <ele>130</ele>
        <time>2016-06-15T06:06:48Z</time>
      </trkpt>
      <trkpt lat="43.61685" lon="7.04207">
        <ele>129</ele>
        <time>2016-06-15T06:06:53Z</time>
      </trkpt>
      <trkpt lat="43.61683" lon="7.0422">
        <ele>129</ele>
        <time>2016-06-15T06:06:58Z</time>
      </trkpt>
      <trkpt lat="43.61685" lon="7.04213">
        <ele>129</ele>
        <time>2016-06-15T06:07:03Z</time>
      </trkpt>
      <trkpt lat="43.61685" lon="7.04207">
        <ele>129</ele>
        <time>2016-06-15T06:07:08Z</time>
      </trkpt>
      <trkpt lat="43.61682" lon="7.04211">
        <ele>128</ele>
        <time>2016-06-15T06:07:13Z</time>
      </trkpt>
      <trkpt lat="43.61682" lon="7.04218">
        <ele>128</ele>
        <time>2016-06-15T06:07:18Z</time>
      </trkpt>
      <trkpt lat="43.61682" lon="7.04218">
        <ele>128</ele>
        <time>2016-06-15T06:07:23Z</time>
      </trkpt>
      <trkpt lat="43.61683" lon="7.04211">
        <ele>127</ele>
        <time>2016-06-15T06:07:28Z</time>
      </trkpt>
      <trkpt lat="43.61683" lon="7.04211">
        <ele>127</ele>
        <time>2016-06-15T06:07:33Z</time>
      </trkpt>
      <trkpt lat="43.61683" lon="7.04211">
        <ele>127</ele>
        <time>2016-06-15T06:07:38Z</time>
      </trkpt>
      <trkpt lat="43.61683" lon="7.04211">
        <ele>127</ele>
        <time>2016-06-15T06:07:43Z</time>
      </trkpt>
      <trkpt lat="43.61683" lon="7.04203">
        <ele>126</ele>
        <time>2016-06-15T06:07:48Z</time>
      </trkpt>
      <trkpt lat="43.61683" lon="7.04203">
        <ele>126</ele>
        <time>2016-06-15T06:07:53Z</time>
      </trkpt>
      <trkpt lat="43.61681" lon="7.04216">
        <ele>126</ele>
        <time>2016-06-15T06:07:58Z</time>
      </trkpt>
      <trkpt lat="43.61681" lon="7.04216">
        <ele>127</ele>
        <time>2016-06-15T06:08:03Z</time>
      </trkpt>
      <trkpt lat="43.61683" lon="7.04209">
        <ele>127</ele>
        <time>2016-06-15T06:08:08Z</time>
      </trkpt>
      <trkpt lat="43.61682" lon="7.04203">
        <ele>127</ele>
        <time>2016-06-15T06:08:13Z</time>
      </trkpt>
      <trkpt lat="43.61682" lon="7.04203">
        <ele>128</ele>
        <time>2016-06-15T06:08:18Z</time>
      </trkpt>
      <trkpt lat="43.61681" lon="7.04217">
        <ele>128</ele>
        <time>2016-06-15T06:08:23Z</time>
      </trkpt>
      <trkpt lat="43.61683" lon="7.04224">
        <ele>128</ele>
        <time>2016-06-15T06:08:28Z</time>
      </trkpt>
      <trkpt lat="43.61683" lon="7.04224">
        <ele>129</ele>
        <time>2016-06-15T06:08:33Z</time>
      </trkpt>
      <trkpt lat="43.61683" lon="7.04224">
        <ele>129</ele>
        <time>2016-06-15T06:08:38Z</time>
      </trkpt>
      <trkpt lat="43.61684" lon="7.04215">
        <ele>130</ele>
        <time>2016-06-15T06:08:43Z</time>
      </trkpt>
      <trkpt lat="43.61682" lon="7.04208">
        <ele>130</ele>
        <time>2016-06-15T06:08:48Z</time>
      </trkpt>
      <trkpt lat="43.61682" lon="7.04208">
        <ele>131</ele>
        <time>2016-06-15T06:08:53Z</time>
      </trkpt>
      <trkpt lat="43.61679" lon="7.04201">
        <ele>131</ele>
        <time>2016-06-15T06:08:58Z</time>
      </trkpt>
      <trkpt lat="43.61689" lon="7.04178">
        <ele>132</ele>
        <time>2016-06-15T06:09:03Z</time>
      </trkpt>
      <trkpt lat="43.61696" lon="7.04158">
        <ele>132</ele>
        <time>2016-06-15T06:09:08Z</time>
      </trkpt>
      <trkpt lat="43.61706" lon="7.04116">
        <ele>133</ele>
        <time>2016-06-15T06:09:13Z</time>
      </trkpt>
      <trkpt lat="43.61712" lon="7.04081">
        <ele>133</ele>
        <time>2016-06-15T06:09:18Z</time>
      </trkpt>
      <trkpt lat="43.61719" lon="7.04047">
        <ele>133</ele>
        <time>2016-06-15T06:09:23Z</time>
      </trkpt>
      <trkpt lat="43.61725" lon="7.04014">
        <ele>134</ele>
        <time>2016-06-15T06:09:28Z</time>
      </trkpt>
      <trkpt lat="43.61725" lon="7.03979">
        <ele>135</ele>
        <time>2016-06-15T06:09:33Z</time>
      </trkpt>
      <trkpt lat="43.61723" lon="7.0394">
        <ele>135</ele>
        <time>2016-06-15T06:09:38Z</time>
      </trkpt>
      <trkpt lat="43.61725" lon="7.03925">
        <ele>136</ele>
        <time>2016-06-15T06:09:43Z</time>
      </trkpt>
      <trkpt lat="43.61714" lon="7.03928">
        <ele>137</ele>
        <time>2016-06-15T06:09:48Z</time>
      </trkpt>
      <trkpt lat="43.61701" lon="7.03941">
        <ele>138</ele>
        <time>2016-06-15T06:09:53Z</time>
      </trkpt>
      <trkpt lat="43.61685" lon="7.03961">
        <ele>139</ele>
        <time>2016-06-15T06:09:58Z</time>
      </trkpt>
      <trkpt lat="43.61678" lon="7.03998">
        <ele>140</ele>
        <time>2016-06-15T06:10:03Z</time>
      </trkpt>
      <trkpt lat="43.61676" lon="7.04019">
        <ele>141</ele>
        <time>2016-06-15T06:10:08Z</time>
      </trkpt>
      <trkpt lat="43.61668" lon="7.0406">
        <ele>142</ele>
        <time>2016-06-15T06:10:13Z</time>
      </trkpt>
      <trkpt lat="43.6165" lon="7.0409">
        <ele>142</ele>
        <time>2016-06-15T06:10:18Z</time>
      </trkpt>
      <trkpt lat="43.61633" lon="7.04116">
        <ele>143</ele>
        <time>2016-06-15T06:10:23Z</time>
      </trkpt>
      <trkpt lat="43.61616" lon="7.04147">
        <ele>143</ele>
        <time>2016-06-15T06:10:28Z</time>
      </trkpt>
      <trkpt lat="43.61621" lon="7.04185">
        <ele>143</ele>
        <time>2016-06-15T06:10:33Z</time>
      </trkpt>
      <trkpt lat="43.61625" lon="7.04225">
        <ele>144</ele>
        <time>2016-06-15T06:10:38Z</time>
      </trkpt>
      <trkpt lat="43.61631" lon="7.04268">
        <ele>144</ele>
        <time>2016-06-15T06:10:43Z</time>
      </trkpt>
      <trkpt lat="43.61634" lon="7.04314">
        <ele>145</ele>
        <time>2016-06-15T06:10:48Z</time>
      </trkpt>
      <trkpt lat="43.61624" lon="7.04348">
        <ele>145</ele>
        <time>2016-06-15T06:10:53Z</time>
      </trkpt>
      <trkpt lat="43.61621" lon="7.04384">
        <ele>145</ele>
        <time>2016-06-15T06:10:58Z</time>
      </trkpt>
      <trkpt lat="43.61633" lon="7.04424">
        <ele>145</ele>
        <time>2016-06-15T06:11:03Z</time>
      </trkpt>
      <trkpt lat="43.61648" lon="7.04466">
        <ele>146</ele>
        <time>2016-06-15T06:11:08Z</time>
      </trkpt>
      <trkpt lat="43.61653" lon="7.04489">
        <ele>146</ele>
        <time>2016-06-15T06:11:13Z</time>
      </trkpt>
      <trkpt lat="43.61648" lon="7.0449">
        <ele>146</ele>
        <time>2016-06-15T06:11:18Z</time>
      </trkpt>
      <trkpt lat="43.6164" lon="7.0448">
        <ele>147</ele>
        <time>2016-06-15T06:11:23Z</time>
      </trkpt>
      <trkpt lat="43.61634" lon="7.04468">
        <ele>148</ele>
        <time>2016-06-15T06:11:28Z</time>
      </trkpt>
      <trkpt lat="43.6163" lon="7.04454">
        <ele>149</ele>
        <time>2016-06-15T06:11:33Z</time>
      </trkpt>
      <trkpt lat="43.61627" lon="7.04447">
        <ele>151</ele>
        <time>2016-06-15T06:11:38Z</time>
      </trkpt>
      <trkpt lat="43.61625" lon="7.04441">
        <ele>152</ele>
        <time>2016-06-15T06:11:43Z</time>
      </trkpt>
      <trkpt lat="43.61617" lon="7.04432">
        <ele>153</ele>
        <time>2016-06-15T06:11:48Z</time>
      </trkpt>
      <trkpt lat="43.61613" lon="7.04428">
        <ele>155</ele>
        <time>2016-06-15T06:11:53Z</time>
      </trkpt>
      <trkpt lat="43.61613" lon="7.04428">
        <ele>156</ele>
        <time>2016-06-15T06:11:58Z</time>
      </trkpt>
      <trkpt lat="43.61608" lon="7.04428">
        <ele>158</ele>
        <time>2016-06-15T06:12:03Z</time>
      </trkpt>
      <trkpt lat="43.61603" lon="7.04428">
        <ele>159</ele>
        <time>2016-06-15T06:12:08Z</time>
      </trkpt>
      <trkpt lat="43.61598" lon="7.04426">
        <ele>160</ele>
        <time>2016-06-15T06:12:13Z</time>
      </trkpt>
      <trkpt lat="43.61593" lon="7.04425">
        <ele>161</ele>
        <time>2016-06-15T06:12:18Z</time>
      </trkpt>
      <trkpt lat="43.61588" lon="7.04424">
        <ele>162</ele>
        <time>2016-06-15T06:12:23Z</time>
      </trkpt>
      <trkpt lat="43.61583" lon="7.04413">
        <ele>162</ele>
        <time>2016-06-15T06:12:28Z</time>
      </trkpt>
      <trkpt lat="43.6158" lon="7.04399">
        <ele>162</ele>
        <time>2016-06-15T06:12:33Z</time>
      </trkpt>
      <trkpt lat="43.61574" lon="7.04386">
        <ele>161</ele>
        <time>2016-06-15T06:12:38Z</time>
      </trkpt>
      <trkpt lat="43.61557" lon="7.04368">
        <ele>161</ele>
        <time>2016-06-15T06:12:43Z</time>
      </trkpt>
      <trkpt lat="43.61544" lon="7.04363">
        <ele>160</ele>
        <time>2016-06-15T06:12:48Z</time>
      </trkpt>
      <trkpt lat="43.61523" lon="7.04366">
        <ele>160</ele>
        <time>2016-06-15T06:12:53Z</time>
      </trkpt>
      <trkpt lat="43.61507" lon="7.04372">
        <ele>159</ele>
        <time>2016-06-15T06:12:58Z</time>
      </trkpt>
      <trkpt lat="43.61482" lon="7.04387">
        <ele>158</ele>
        <time>2016-06-15T06:13:03Z</time>
      </trkpt>
      <trkpt lat="43.61471" lon="7.04398">
        <ele>158</ele>
        <time>2016-06-15T06:13:08Z</time>
      </trkpt>
      <trkpt lat="43.61459" lon="7.04413">
        <ele>157</ele>
        <time>2016-06-15T06:13:13Z</time>
      </trkpt>
      <trkpt lat="43.61451" lon="7.04421">
        <ele>157</ele>
        <time>2016-06-15T06:13:18Z</time>
      </trkpt>
      <trkpt lat="43.61439" lon="7.04437">
        <ele>156</ele>
        <time>2016-06-15T06:13:23Z</time>
      </trkpt>
      <trkpt lat="43.61432" lon="7.0445">
        <ele>156</ele>
        <time>2016-06-15T06:13:28Z</time>
      </trkpt>
      <trkpt lat="43.61436" lon="7.04455">
        <ele>156</ele>
        <time>2016-06-15T06:13:33Z</time>
      </trkpt>
      <trkpt lat="43.61441" lon="7.04454">
        <ele>156</ele>
        <time>2016-06-15T06:13:38Z</time>
      </trkpt>
      <trkpt lat="43.61447" lon="7.04454">
        <ele>156</ele>
        <time>2016-06-15T06:13:43Z</time>
      </trkpt>
      <trkpt lat="43.61451" lon="7.04456">
        <ele>156</ele>
        <time>2016-06-15T06:13:48Z</time>
      </trkpt>
      <trkpt lat="43.61456" lon="7.04459">
        <ele>155</ele>
        <time>2016-06-15T06:13:53Z</time>
      </trkpt>
      <trkpt lat="43.61468" lon="7.04451">
        <ele>155</ele>
        <time>2016-06-15T06:13:58Z</time>
      </trkpt>
      <trkpt lat="43.61493" lon="7.04441">
        <ele>154</ele>
        <time>2016-06-15T06:14:03Z</time>
      </trkpt>
      <trkpt lat="43.61515" lon="7.04435">
        <ele>153</ele>
        <time>2016-06-15T06:14:08Z</time>
      </trkpt>
      <trkpt lat="43.61539" lon="7.04429">
        <ele>152</ele>
        <time>2016-06-15T06:14:13Z</time>
      </trkpt>
      <trkpt lat="43.61564" lon="7.04433">
        <ele>151</ele>
        <time>2016-06-15T06:14:18Z</time>
      </trkpt>
      <trkpt lat="43.61589" lon="7.04452">
        <ele>150</ele>
        <time>2016-06-15T06:14:23Z</time>
      </trkpt>
      <trkpt lat="43.61609" lon="7.04485">
        <ele>148</ele>
        <time>2016-06-15T06:14:28Z</time>
      </trkpt>
      <trkpt lat="43.61627" lon="7.04519">
        <ele>147</ele>
        <time>2016-06-15T06:14:33Z</time>
      </trkpt>
      <trkpt lat="43.61647" lon="7.04553">
        <ele>146</ele>
        <time>2016-06-15T06:14:38Z</time>
      </trkpt>
      <trkpt lat="43.61664" lon="7.04588">
        <ele>144</ele>
        <time>2016-06-15T06:14:43Z</time>
      </trkpt>
      <trkpt lat="43.61684" lon="7.04621">
        <ele>142</ele>
        <time>2016-06-15T06:14:48Z</time>
      </trkpt>
      <trkpt lat="43.61699" lon="7.04657">
        <ele>140</ele>
        <time>2016-06-15T06:14:53Z</time>
      </trkpt>
      <trkpt lat="43.61707" lon="7.04696">
        <ele>138</ele>
        <time>2016-06-15T06:14:58Z</time>
      </trkpt>
      <trkpt lat="43.61717" lon="7.04731">
        <ele>136</ele>
        <time>2016-06-15T06:15:03Z</time>
      </trkpt>
      <trkpt lat="43.61726" lon="7.04764">
        <ele>135</ele>
        <time>2016-06-15T06:15:08Z</time>
      </trkpt>
      <trkpt lat="43.61732" lon="7.04801">
        <ele>133</ele>
        <time>2016-06-15T06:15:13Z</time>
      </trkpt>
      <trkpt lat="43.61731" lon="7.04819">
        <ele>131</ele>
        <time>2016-06-15T06:15:18Z</time>
      </trkpt>
      <trkpt lat="43.61743" lon="7.04823">
        <ele>130</ele>
        <time>2016-06-15T06:15:23Z</time>
      </trkpt>
      <trkpt lat="43.61766" lon="7.04817">
        <ele>129</ele>
        <time>2016-06-15T06:15:28Z</time>
      </trkpt>
      <trkpt lat="43.61786" lon="7.04817">
        <ele>128</ele>
        <time>2016-06-15T06:15:33Z</time>
      </trkpt>
      <trkpt lat="43.61791" lon="7.04816">
        <ele>127</ele>
        <time>2016-06-15T06:15:38Z</time>
      </trkpt>
      <trkpt lat="43.61795" lon="7.04811">
        <ele>126</ele>
        <time>2016-06-15T06:15:43Z</time>
      </trkpt>
      <trkpt lat="43.61812" lon="7.04828">
        <ele>125</ele>
        <time>2016-06-15T06:15:48Z</time>
      </trkpt>
      <trkpt lat="43.61814" lon="7.04866">
        <ele>124</ele>
        <time>2016-06-15T06:15:53Z</time>
      </trkpt>
      <trkpt lat="43.61813" lon="7.04888">
        <ele>123</ele>
        <time>2016-06-15T06:15:58Z</time>
      </trkpt>
      <trkpt lat="43.61814" lon="7.04872">
        <ele>121</ele>
        <time>2016-06-15T06:16:03Z</time>
      </trkpt>
      <trkpt lat="43.61818" lon="7.04871">
        <ele>120</ele>
        <time>2016-06-15T06:16:08Z</time>
      </trkpt>
      <trkpt lat="43.61822" lon="7.04878">
        <ele>119</ele>
        <time>2016-06-15T06:16:13Z</time>
      </trkpt>
      <trkpt lat="43.6183" lon="7.04901">
        <ele>117</ele>
        <time>2016-06-15T06:16:18Z</time>
      </trkpt>
      <trkpt lat="43.61838" lon="7.0491">
        <ele>116</ele>
        <time>2016-06-15T06:16:23Z</time>
      </trkpt>
      <trkpt lat="43.61854" lon="7.04925">
        <ele>115</ele>
        <time>2016-06-15T06:16:28Z</time>
      </trkpt>
      <trkpt lat="43.61866" lon="7.04933">
        <ele>115</ele>
        <time>2016-06-15T06:16:33Z</time>
      </trkpt>
      <trkpt lat="43.61884" lon="7.04934">
        <ele>114</ele>
        <time>2016-06-15T06:16:38Z</time>
      </trkpt>
      <trkpt lat="43.61899" lon="7.04935">
        <ele>114</ele>
        <time>2016-06-15T06:16:43Z</time>
      </trkpt>
      <trkpt lat="43.61919" lon="7.04934">
        <ele>113</ele>
        <time>2016-06-15T06:16:48Z</time>
      </trkpt>
      <trkpt lat="43.61931" lon="7.04934">
        <ele>113</ele>
        <time>2016-06-15T06:16:53Z</time>
      </trkpt>
      <trkpt lat="43.6195" lon="7.04931">
        <ele>113</ele>
        <time>2016-06-15T06:16:58Z</time>
      </trkpt>
      <trkpt lat="43.61973" lon="7.04903">
        <ele>113</ele>
        <time>2016-06-15T06:17:03Z</time>
      </trkpt>
      <trkpt lat="43.61989" lon="7.04891">
        <ele>113</ele>
        <time>2016-06-15T06:17:08Z</time>
      </trkpt>
      <trkpt lat="43.6202" lon="7.049">
        <ele>112</ele>
        <time>2016-06-15T06:17:13Z</time>
      </trkpt>
      <trkpt lat="43.62047" lon="7.04932">
        <ele>112</ele>
        <time>2016-06-15T06:17:18Z</time>
      </trkpt>
      <trkpt lat="43.6207" lon="7.04971">
        <ele>111</ele>
        <time>2016-06-15T06:17:23Z</time>
      </trkpt>
      <trkpt lat="43.62062" lon="7.04993">
        <ele>110</ele>
        <time>2016-06-15T06:17:28Z</time>
      </trkpt>
      <trkpt lat="43.62046" lon="7.05015">
        <ele>109</ele>
        <time>2016-06-15T06:17:33Z</time>
      </trkpt>
      <trkpt lat="43.62046" lon="7.05023">
        <ele>109</ele>
        <time>2016-06-15T06:17:38Z</time>
      </trkpt>
      <trkpt lat="43.62057" lon="7.0503">
        <ele>108</ele>
        <time>2016-06-15T06:17:43Z</time>
      </trkpt>
      <trkpt lat="43.62057" lon="7.05076">
        <ele>107</ele>
        <time>2016-06-15T06:17:48Z</time>
      </trkpt>
      <trkpt lat="43.6205" lon="7.05122">
        <ele>106</ele>
        <time>2016-06-15T06:17:53Z</time>
      </trkpt>
      <trkpt lat="43.62047" lon="7.05163">
        <ele>105</ele>
        <time>2016-06-15T06:17:58Z</time>
      </trkpt>
      <trkpt lat="43.62041" lon="7.05202">
        <ele>104</ele>
        <time>2016-06-15T06:18:03Z</time>
      </trkpt>
      <trkpt lat="43.62037" lon="7.05247">
        <ele>103</ele>
        <time>2016-06-15T06:18:08Z</time>
      </trkpt>
      <trkpt lat="43.62034" lon="7.05295">
        <ele>102</ele>
        <time>2016-06-15T06:18:13Z</time>
      </trkpt>
      <trkpt lat="43.62032" lon="7.05339">
        <ele>102</ele>
        <time>2016-06-15T06:18:18Z</time>
      </trkpt>
      <trkpt lat="43.62033" lon="7.05377">
        <ele>101</ele>
        <time>2016-06-15T06:18:23Z</time>
      </trkpt>
      <trkpt lat="43.6204" lon="7.05412">
        <ele>101</ele>
        <time>2016-06-15T06:18:28Z</time>
      </trkpt>
      <trkpt lat="43.62052" lon="7.05436">
        <ele>101</ele>
        <time>2016-06-15T06:18:33Z</time>
      </trkpt>
      <trkpt lat="43.62081" lon="7.05432">
        <ele>101</ele>
        <time>2016-06-15T06:18:38Z</time>
      </trkpt>
      <trkpt lat="43.62109" lon="7.05436">
        <ele>102</ele>
        <time>2016-06-15T06:18:43Z</time>
      </trkpt>
      <trkpt lat="43.62124" lon="7.05464">
        <ele>102</ele>
        <time>2016-06-15T06:18:48Z</time>
      </trkpt>
      <trkpt lat="43.62133" lon="7.05498">
        <ele>103</ele>
        <time>2016-06-15T06:18:53Z</time>
      </trkpt>
      <trkpt lat="43.62148" lon="7.05526">
        <ele>104</ele>
        <time>2016-06-15T06:18:58Z</time>
      </trkpt>
      <trkpt lat="43.62169" lon="7.05551">
        <ele>105</ele>
        <time>2016-06-15T06:19:03Z</time>
      </trkpt>
      <trkpt lat="43.62187" lon="7.05577">
        <ele>106</ele>
        <time>2016-06-15T06:19:08Z</time>
      </trkpt>
      <trkpt lat="43.62198" lon="7.05586">
        <ele>107</ele>
        <time>2016-06-15T06:19:13Z</time>
      </trkpt>
      <trkpt lat="43.62224" lon="7.05562">
        <ele>107</ele>
        <time>2016-06-15T06:19:18Z</time>
      </trkpt>
      <trkpt lat="43.62231" lon="7.05551">
        <ele>108</ele>
        <time>2016-06-15T06:19:23Z</time>
      </trkpt>
      <trkpt lat="43.62229" lon="7.05534">
        <ele>108</ele>
        <time>2016-06-15T06:19:28Z</time>
      </trkpt>
      <trkpt lat="43.62221" lon="7.05522">
        <ele>109</ele>
        <time>2016-06-15T06:19:33Z</time>
      </trkpt>
      <trkpt lat="43.62205" lon="7.05514">
        <ele>109</ele>
        <time>2016-06-15T06:19:38Z</time>
      </trkpt>
      <trkpt lat="43.62192" lon="7.05512">
        <ele>108</ele>
        <time>2016-06-15T06:19:43Z</time>
      </trkpt>
      <trkpt lat="43.62175" lon="7.05494">
        <ele>108</ele>
        <time>2016-06-15T06:19:48Z</time>
      </trkpt>
      <trkpt lat="43.62161" lon="7.05466">
        <ele>107</ele>
        <time>2016-06-15T06:19:53Z</time>
      </trkpt>
      <trkpt lat="43.62146" lon="7.0544">
        <ele>107</ele>
        <time>2016-06-15T06:19:58Z</time>
      </trkpt>
      <trkpt lat="43.62127" lon="7.05417">
        <ele>106</ele>
        <time>2016-06-15T06:20:03Z</time>
      </trkpt>
      <trkpt lat="43.62103" lon="7.05394">
        <ele>106</ele>
        <time>2016-06-15T06:20:08Z</time>
      </trkpt>
      <trkpt lat="43.6209" lon="7.05364">
        <ele>106</ele>
        <time>2016-06-15T06:20:13Z</time>
      </trkpt>
      <trkpt lat="43.62082" lon="7.05334">
        <ele>106</ele>
        <time>2016-06-15T06:20:18Z</time>
      </trkpt>
      <trkpt lat="43.62077" lon="7.05311">
        <ele>107</ele>
        <time>2016-06-15T06:20:23Z</time>
      </trkpt>
      <trkpt lat="43.62083" lon="7.05287">
        <ele>107</ele>
        <time>2016-06-15T06:20:28Z</time>
      </trkpt>
      <trkpt lat="43.62086" lon="7.05272">
        <ele>107</ele>
        <time>2016-06-15T06:20:33Z</time>
      </trkpt>
      <trkpt lat="43.6209" lon="7.05257">
        <ele>108</ele>
        <time>2016-06-15T06:20:38Z</time>
      </trkpt>
      <trkpt lat="43.62095" lon="7.05243">
        <ele>109</ele>
        <time>2016-06-15T06:20:43Z</time>
      </trkpt>
      <trkpt lat="43.62097" lon="7.05227">
        <ele>110</ele>
        <time>2016-06-15T06:20:48Z</time>
      </trkpt>
      <trkpt lat="43.621" lon="7.05214">
        <ele>111</ele>
        <time>2016-06-15T06:20:53Z</time>
      </trkpt>
      <trkpt lat="43.62102" lon="7.05199">
        <ele>113</ele>
        <time>2016-06-15T06:20:58Z</time>
      </trkpt>
      <trkpt lat="43.62106" lon="7.05183">
        <ele>114</ele>
        <time>2016-06-15T06:21:03Z</time>
      </trkpt>
      <trkpt lat="43.62108" lon="7.05177">
        <ele>115</ele>
        <time>2016-06-15T06:21:08Z</time>
      </trkpt>
      <trkpt lat="43.62111" lon="7.05165">
        <ele>116</ele>
        <time>2016-06-15T06:21:13Z</time>
      </trkpt>
      <trkpt lat="43.62112" lon="7.05158">
        <ele>117</ele>
        <time>2016-06-15T06:21:18Z</time>
      </trkpt>
      <trkpt lat="43.62111" lon="7.05151">
        <ele>117</ele>
        <time>2016-06-15T06:21:23Z</time>
      </trkpt>
      <trkpt lat="43.62113" lon="7.05137">
        <ele>117</ele>
        <time>2016-06-15T06:21:28Z</time>
      </trkpt>
      <trkpt lat="43.62116" lon="7.0513">
        <ele>117</ele>
        <time>2016-06-15T06:21:33Z</time>
      </trkpt>
      <trkpt lat="43.62119" lon="7.05117">
        <ele>116</ele>
        <time>2016-06-15T06:21:38Z</time>
      </trkpt>
      <trkpt lat="43.62121" lon="7.05102">
        <ele>115</ele>
        <time>2016-06-15T06:21:43Z</time>
      </trkpt>
      <trkpt lat="43.62121" lon="7.05086">
        <ele>114</ele>
        <time>2016-06-15T06:21:48Z</time>
      </trkpt>
      <trkpt lat="43.62122" lon="7.05079">
        <ele>113</ele>
        <time>2016-06-15T06:21:53Z</time>
      </trkpt>
      <trkpt lat="43.62128" lon="7.05065">
        <ele>112</ele>
        <time>2016-06-15T06:21:58Z</time>
      </trkpt>
      <trkpt lat="43.62127" lon="7.0505">
        <ele>111</ele>
        <time>2016-06-15T06:22:03Z</time>
      </trkpt>
      <trkpt lat="43.62114" lon="7.05033">
        <ele>110</ele>
        <time>2016-06-15T06:22:08Z</time>
      </trkpt>
      <trkpt lat="43.62104" lon="7.04997">
        <ele>109</ele>
        <time>2016-06-15T06:22:13Z</time>
      </trkpt>
      <trkpt lat="43.62103" lon="7.04964">
        <ele>109</ele>
        <time>2016-06-15T06:22:18Z</time>
      </trkpt>
      <trkpt lat="43.62106" lon="7.04944">
        <ele>109</ele>
        <time>2016-06-15T06:22:23Z</time>
      </trkpt>
      <trkpt lat="43.62105" lon="7.04935">
        <ele>109</ele>
        <time>2016-06-15T06:22:28Z</time>
      </trkpt>
      <trkpt lat="43.62108" lon="7.04942">
        <ele>109</ele>
        <time>2016-06-15T06:22:33Z</time>
      </trkpt>
      <trkpt lat="43.62111" lon="7.04949">
        <ele>109</ele>
        <time>2016-06-15T06:22:38Z</time>
      </trkpt>
      <trkpt lat="43.62118" lon="7.04961">
        <ele>109</ele>
        <time>2016-06-15T06:22:43Z</time>
      </trkpt>
      <trkpt lat="43.62122" lon="7.04957">
        <ele>109</ele>
        <time>2016-06-15T06:22:48Z</time>
      </trkpt>
      <trkpt lat="43.62119" lon="7.04935">
        <ele>110</ele>
        <time>2016-06-15T06:22:53Z</time>
      </trkpt>
      <trkpt lat="43.62119" lon="7.04919">
        <ele>110</ele>
        <time>2016-06-15T06:22:58Z</time>
      </trkpt>
      <trkpt lat="43.62119" lon="7.04904">
        <ele>111</ele>
        <time>2016-06-15T06:23:03Z</time>
      </trkpt>
      <trkpt lat="43.62111" lon="7.0488">
        <ele>112</ele>
        <time>2016-06-15T06:23:08Z</time>
      </trkpt>
      <trkpt lat="43.62095" lon="7.04861">
        <ele>112</ele>
        <time>2016-06-15T06:23:13Z</time>
      </trkpt>
      <trkpt lat="43.62065" lon="7.04853">
        <ele>113</ele>
        <time>2016-06-15T06:23:18Z</time>
      </trkpt>
      <trkpt lat="43.62034" lon="7.04828">
        <ele>113</ele>
        <time>2016-06-15T06:23:23Z</time>
      </trkpt>
      <trkpt lat="43.62015" lon="7.04822">
        <ele>112</ele>
        <time>2016-06-15T06:23:28Z</time>
      </trkpt>
      <trkpt lat="43.61991" lon="7.04818">
        <ele>112</ele>
        <time>2016-06-15T06:23:33Z</time>
      </trkpt>
      <trkpt lat="43.61967" lon="7.04797">
        <ele>111</ele>
        <time>2016-06-15T06:23:38Z</time>
      </trkpt>
      <trkpt lat="43.61939" lon="7.04786">
        <ele>110</ele>
        <time>2016-06-15T06:23:43Z</time>
      </trkpt>
      <trkpt lat="43.61914" lon="7.04765">
        <ele>110</ele>
        <time>2016-06-15T06:23:48Z</time>
      </trkpt>
      <trkpt lat="43.61907" lon="7.04743">
        <ele>110</ele>
        <time>2016-06-15T06:23:53Z</time>
      </trkpt>
      <trkpt lat="43.61912" lon="7.04712">
        <ele>110</ele>
        <time>2016-06-15T06:23:58Z</time>
      </trkpt>
      <trkpt lat="43.61914" lon="7.04691">
        <ele>111</ele>
        <time>2016-06-15T06:24:03Z</time>
      </trkpt>
      <trkpt lat="43.61916" lon="7.04653">
        <ele>111</ele>
        <time>2016-06-15T06:24:08Z</time>
      </trkpt>
      <trkpt lat="43.61908" lon="7.04612">
        <ele>112</ele>
        <time>2016-06-15T06:24:13Z</time>
      </trkpt>
      <trkpt lat="43.61893" lon="7.04577">
        <ele>113</ele>
        <time>2016-06-15T06:24:18Z</time>
      </trkpt>
      <trkpt lat="43.61883" lon="7.04558">
        <ele>114</ele>
        <time>2016-06-15T06:24:23Z</time>
      </trkpt>
      <trkpt lat="43.61878" lon="7.04541">
        <ele>116</ele>
        <time>2016-06-15T06:24:28Z</time>
      </trkpt>
      <trkpt lat="43.61876" lon="7.04534">
        <ele>117</ele>
        <time>2016-06-15T06:24:33Z</time>
      </trkpt>
      <trkpt lat="43.61859" lon="7.04519">
        <ele>119</ele>
        <time>2016-06-15T06:24:38Z</time>
      </trkpt>
      <trkpt lat="43.61845" lon="7.04508">
        <ele>121</ele>
        <time>2016-06-15T06:24:43Z</time>
      </trkpt>
      <trkpt lat="43.61826" lon="7.04493">
        <ele>123</ele>
        <time>2016-06-15T06:24:48Z</time>
      </trkpt>
      <trkpt lat="43.61803" lon="7.04489">
        <ele>124</ele>
        <time>2016-06-15T06:24:53Z</time>
      </trkpt>
      <trkpt lat="43.61773" lon="7.04483">
        <ele>126</ele>
        <time>2016-06-15T06:24:58Z</time>
      </trkpt>
      <trkpt lat="43.61742" lon="7.04472">
        <ele>127</ele>
        <time>2016-06-15T06:25:03Z</time>
      </trkpt>
      <trkpt lat="43.61722" lon="7.04437">
        <ele>128</ele>
        <time>2016-06-15T06:25:08Z</time>
      </trkpt>
      <trkpt lat="43.61718" lon="7.04394">
        <ele>129</ele>
        <time>2016-06-15T06:25:13Z</time>
      </trkpt>
      <trkpt lat="43.61726" lon="7.04355">
        <ele>130</ele>
        <time>2016-06-15T06:25:18Z</time>
      </trkpt>
      <trkpt lat="43.61727" lon="7.04319">
        <ele>130</ele>
        <time>2016-06-15T06:25:23Z</time>
      </trkpt>
      <trkpt lat="43.61721" lon="7.04285">
        <ele>131</ele>
        <time>2016-06-15T06:25:28Z</time>
      </trkpt>
      <trkpt lat="43.61702" lon="7.04248">
        <ele>131</ele>
        <time>2016-06-15T06:25:33Z</time>
      </trkpt>
      <trkpt lat="43.61676" lon="7.04225">
        <ele>131</ele>
        <time>2016-06-15T06:25:38Z</time>
      </trkpt>
      <trkpt lat="43.61671" lon="7.04203">
        <ele>132</ele>
        <time>2016-06-15T06:25:43Z</time>
      </trkpt>
      <trkpt lat="43.61678" lon="7.04189">
        <ele>132</ele>
        <time>2016-06-15T06:25:48Z</time>
      </trkpt>
      <trkpt lat="43.61685" lon="7.04179">
        <ele>132</ele>
        <time>2016-06-15T06:25:53Z</time>
      </trkpt>
      <trkpt lat="43.61679" lon="7.04179">
        <ele>132</ele>
        <time>2016-06-15T06:25:58Z</time>
      </trkpt>
      <trkpt lat="43.61674" lon="7.04183">
        <ele>132</ele>
        <time>2016-06-15T06:26:03Z</time>
      </trkpt>
      <trkpt lat="43.61674" lon="7.04183">
        <ele>132</ele>
        <time>2016-06-15T06:26:08Z</time>
      </trkpt>
      <trkpt lat="43.6167" lon="7.04184">
        <ele>133</ele>
        <time>2016-06-15T06:26:13Z</time>
      </trkpt>
      <trkpt lat="43.6167" lon="7.04184">
        <ele>133</ele>
        <time>2016-06-15T06:26:18Z</time>
      </trkpt>
      <trkpt lat="43.6167" lon="7.04184">
        <ele>133</ele>
        <time>2016-06-15T06:26:23Z</time>
      </trkpt>
      <trkpt lat="43.6167" lon="7.04184">
        <ele>133</ele>
        <time>2016-06-15T06:26:28Z</time>
      </trkpt>
      <trkpt lat="43.61664" lon="7.04184">
        <ele>133</ele>
        <time>2016-06-15T06:26:33Z</time>
      </trkpt>
      <trkpt lat="43.61664" lon="7.04184">
        <ele>133</ele>
        <time>2016-06-15T06:26:38Z</time>
      </trkpt>
      <trkpt lat="43.61669" lon="7.04185">
        <ele>133</ele>
        <time>2016-06-15T06:26:43Z</time>
      </trkpt>
      <trkpt lat="43.6167" lon="7.04173">
        <ele>132</ele>
        <time>2016-06-15T06:26:48Z</time>
      </trkpt>
      <trkpt lat="43.61663" lon="7.04174">
        <ele>131</ele>
        <time>2016-06-15T06:26:53Z</time>
      </trkpt>
      <trkpt lat="43.61661" lon="7.04186">
        <ele>131</ele>
        <time>2016-06-15T06:26:58Z</time>
      </trkpt>
      <trkpt lat="43.61665" lon="7.04183">
        <ele>130</ele>
        <time>2016-06-15T06:27:03Z</time>
      </trkpt>
      <trkpt lat="43.6167" lon="7.0418">
        <ele>128</ele>
        <time>2016-06-15T06:27:08Z</time>
      </trkpt>
      <trkpt lat="43.61667" lon="7.04174">
        <ele>127</ele>
        <time>2016-06-15T06:27:13Z</time>
      </trkpt>
      <trkpt lat="43.61664" lon="7.0418">
        <ele>126</ele>
        <time>2016-06-15T06:27:18Z</time>
      </trkpt>
      <trkpt lat="43.6166" lon="7.04178">
        <ele>125</ele>
        <time>2016-06-15T06:27:23Z</time>
      </trkpt>
      <trkpt lat="43.61665" lon="7.0418">
        <ele>124</ele>
        <time>2016-06-15T06:27:28Z</time>
      </trkpt>
      <trkpt lat="43.6167" lon="7.04179">
        <ele>122</ele>
        <time>2016-06-15T06:27:33Z</time>
      </trkpt>
      <trkpt lat="43.61665" lon="7.0417">
        <ele>121</ele>
        <time>2016-06-15T06:27:38Z</time>
      </trkpt>
      <trkpt lat="43.61654" lon="7.04176">
        <ele>120</ele>
        <time>2016-06-15T06:27:43Z</time>
      </trkpt>
      <trkpt lat="43.61657" lon="7.04186">
        <ele>119</ele>
        <time>2016-06-15T06:27:48Z</time>
      </trkpt>
      <trkpt lat="43.61663" lon="7.04183">
        <ele>118</ele>
        <time>2016-06-15T06:27:53Z</time>
      </trkpt>
      <trkpt lat="43.61667" lon="7.04181">
        <ele>117</ele>
        <time>2016-06-15T06:27:58Z</time>
      </trkpt>
      <trkpt lat="43.61672" lon="7.04181">
        <ele>116</ele>
        <time>2016-06-15T06:28:03Z</time>
      </trkpt>
      <trkpt lat="43.61672" lon="7.04181">
        <ele>115</ele>
        <time>2016-06-15T06:28:08Z</time>
      </trkpt>
      <trkpt lat="43.61667" lon="7.04179">
        <ele>115</ele>
        <time>2016-06-15T06:28:13Z</time>
      </trkpt>
      <trkpt lat="43.6166" lon="7.0417">
        <ele>114</ele>
        <time>2016-06-15T06:28:18Z</time>
      </trkpt>
      <trkpt lat="43.61663" lon="7.04157">
        <ele>114</ele>
        <time>2016-06-15T06:28:23Z</time>
      </trkpt>
      <trkpt lat="43.61661" lon="7.04165">
        <ele>114</ele>
        <time>2016-06-15T06:28:28Z</time>
      </trkpt>
      <trkpt lat="43.61667" lon="7.04164">
        <ele>113</ele>
        <time>2016-06-15T06:28:33Z</time>
      </trkpt>
      <trkpt lat="43.61673" lon="7.04166">
        <ele>113</ele>
        <time>2016-06-15T06:28:38Z</time>
      </trkpt>
      <trkpt lat="43.61671" lon="7.04172">
        <ele>113</ele>
        <time>2016-06-15T06:28:43Z</time>
      </trkpt>
      <trkpt lat="43.61671" lon="7.04172">
        <ele>113</ele>
        <time>2016-06-15T06:28:48Z</time>
      </trkpt>
      <trkpt lat="43.61671" lon="7.04172">
        <ele>113</ele>
        <time>2016-06-15T06:28:53Z</time>
      </trkpt>
      <trkpt lat="43.61671" lon="7.04172">
        <ele>112</ele>
        <time>2016-06-15T06:28:58Z</time>
      </trkpt>
      <trkpt lat="43.61671" lon="7.04172">
        <ele>112</ele>
        <time>2016-06-15T06:29:03Z</time>
      </trkpt>
      <trkpt lat="43.61671" lon="7.04172">
        <ele>112</ele>
        <time>2016-06-15T06:29:08Z</time>
      </trkpt>
      <trkpt lat="43.61671" lon="7.04172">
        <ele>112</ele>
        <time>2016-06-15T06:29:13Z</time>
      </trkpt>
      <trkpt lat="43.61671" lon="7.04172">
        <ele>112</ele>
        <time>2016-06-15T06:29:18Z</time>
      </trkpt>
      <trkpt lat="43.61671" lon="7.04172">
        <ele>112</ele>
        <time>2016-06-15T06:29:23Z</time>
      </trkpt>
      <trkpt lat="43.61671" lon="7.04172">
        <ele>112</ele>
        <time>2016-06-15T06:29:28Z</time>
      </trkpt>
      <trkpt lat="43.61671" lon="7.04172">
        <ele>112</ele>
        <time>2016-06-15T06:29:33Z</time>
      </trkpt>
      <trkpt lat="43.61671" lon="7.04172">
        <ele>112</ele>
        <time>2016-06-15T06:29:38Z</time>
      </trkpt>
      <trkpt lat="43.61671" lon="7.04172">
        <ele>112</ele>
        <time>2016-06-15T06:29:43Z</time>
      </trkpt>
      <trkpt lat="43.61671" lon="7.04172">
        <ele>112</ele>
        <time>2016-06-15T06:29:48Z</time>
      </trkpt>
      <trkpt lat="43.61671" lon="7.04172">
        <ele>112</ele>
        <time>2016-06-15T06:29:53Z</time>
      </trkpt>
      <trkpt lat="43.61671" lon="7.04172">
        <ele>112</ele>
        <time>2016-06-15T06:29:58Z</time>
      </trkpt>
      <trkpt lat="43.61671" lon="7.04172">
        <ele>112</ele>
        <time>2016-06-15T06:30:03Z</time>
      </trkpt>
      <trkpt lat="43.61671" lon="7.04172">
        <ele>112</ele>
        <time>2016-06-15T06:30:08Z</time>
      </trkpt>
      <trkpt lat="43.61671" lon="7.04172">
        <ele>112</ele>
        <time>2016-06-15T06:30:13Z</time>
      </trkpt>
      <trkpt lat="43.61671" lon="7.04172">
        <ele>112</ele>
        <time>2016-06-15T06:30:18Z</time>
      </trkpt>
      <trkpt lat="43.61671" lon="7.04172">
        <ele>112</ele>
        <time>2016-06-15T06:30:23Z</time>
      </trkpt>
      <trkpt lat="43.61671" lon="7.04172">
        <ele>112</ele>
        <time>2016-06-15T06:30:28Z</time>
      </trkpt>
      <trkpt lat="43.61671" lon="7.04172">
        <ele>112</ele>
        <time>2016-06-15T06:30:33Z</time>
      </trkpt>
      <trkpt lat="43.61671" lon="7.04172">
        <ele>112</ele>
        <time>2016-06-15T06:30:38Z</time>
      </trkpt>
      <trkpt lat="43.61671" lon="7.04172">
        <ele>112</ele>
        <time>2016-06-15T06:30:43Z</time>
      </trkpt>
      <trkpt lat="43.61671" lon="7.04172">
        <ele>112</ele>
        <time>2016-06-15T06:30:48Z</time>
      </trkpt>
      <trkpt lat="43.61671" lon="7.04172">
        <ele>112</ele>
        <time>2016-06-15T06:30:53Z</time>
      </trkpt>
      <trkpt lat="43.61671" lon="7.04172">
        <ele>112</ele>
        <time>2016-06-15T06:30:58Z</time>
      </trkpt>
      <trkpt lat="43.61671" lon="7.04172">
        <ele>112</ele>
        <time>2016-06-15T06:31:03Z</time>
      </trkpt>
      <trkpt lat="43.61671" lon="7.04172">
        <ele>112</ele>
        <time>2016-06-15T06:31:08Z</time>
      </trkpt>
      <trkpt lat="43.61671" lon="7.04172">
        <ele>112</ele>
        <time>2016-06-15T06:31:13Z</time>
      </trkpt>
      <trkpt lat="43.61671" lon="7.04172">
        <ele>112</ele>
        <time>2016-06-15T06:31:18Z</time>
      </trkpt>
      <trkpt lat="43.61671" lon="7.04172">
        <ele>112</ele>
        <time>2016-06-15T06:31:23Z</time>
      </trkpt>
      <trkpt lat="43.61671" lon="7.04172">
        <ele>112</ele>
        <time>2016-06-15T06:31:28Z</time>
      </trkpt>
      <trkpt lat="43.61671" lon="7.04172">
        <ele>112</ele>
        <time>2016-06-15T06:31:33Z</time>
      </trkpt>
      <trkpt lat="43.61671" lon="7.04172">
        <ele>112</ele>
        <time>2016-06-15T06:31:38Z</time>
      </trkpt>
      <trkpt lat="43.61671" lon="7.04172">
        <ele>112</ele>
        <time>2016-06-15T06:31:43Z</time>
      </trkpt>
      <trkpt lat="43.61671" lon="7.04172">
        <ele>112</ele>
        <time>2016-06-15T06:31:48Z</time>
      </trkpt>
      <trkpt lat="43.61671" lon="7.04172">
        <ele>112</ele>
        <time>2016-06-15T06:31:53Z</time>
      </trkpt>
      <trkpt lat="43.61671" lon="7.04172">
        <ele>112</ele>
        <time>2016-06-15T06:31:58Z</time>
      </trkpt>
      <trkpt lat="43.61671" lon="7.04172">
        <ele>112</ele>
        <time>2016-06-15T06:32:03Z</time>
      </trkpt>
      <trkpt lat="43.61671" lon="7.04172">
        <ele>112</ele>
        <time>2016-06-15T06:32:08Z</time>
      </trkpt>
      <trkpt lat="43.61671" lon="7.04172">
        <ele>112</ele>
        <time>2016-06-15T06:32:13Z</time>
      </trkpt>
      <trkpt lat="43.61671" lon="7.04172">
        <ele>112</ele>
        <time>2016-06-15T06:32:18Z</time>
      </trkpt>
      <trkpt lat="43.61671" lon="7.04172">
        <ele>112</ele>
        <time>2016-06-15T06:32:23Z</time>
      </trkpt>
      <trkpt lat="43.61671" lon="7.04172">
        <ele>112</ele>
        <time>2016-06-15T06:32:28Z</time>
      </trkpt>
      <trkpt lat="43.61671" lon="7.04172">
        <ele>112</ele>
        <time>2016-06-15T06:32:33Z</time>
      </trkpt>
      <trkpt lat="43.61671" lon="7.04172">
        <ele>112</ele>
        <time>2016-06-15T06:32:38Z</time>
      </trkpt>
      <trkpt lat="43.61671" lon="7.04172">
        <ele>112</ele>
        <time>2016-06-15T06:32:43Z</time>
      </trkpt>
      <trkpt lat="43.61671" lon="7.04172">
        <ele>112</ele>
        <time>2016-06-15T06:32:48Z</time>
      </trkpt>
      <trkpt lat="43.61672" lon="7.04178">
        <ele>112</ele>
        <time>2016-06-15T06:32:53Z</time>
      </trkpt>
      <trkpt lat="43.61672" lon="7.04178">
        <ele>112</ele>
        <time>2016-06-15T06:32:58Z</time>
      </trkpt>
      <trkpt lat="43.61672" lon="7.04178">
        <ele>113</ele>
        <time>2016-06-15T06:33:03Z</time>
      </trkpt>
      <trkpt lat="43.61672" lon="7.04178">
        <ele>113</ele>
        <time>2016-06-15T06:33:08Z</time>
      </trkpt>
      <trkpt lat="43.61672" lon="7.04178">
        <ele>113</ele>
        <time>2016-06-15T06:33:13Z</time>
      </trkpt>
      <trkpt lat="43.61672" lon="7.04185">
        <ele>113</ele>
        <time>2016-06-15T06:33:18Z</time>
      </trkpt>
      <trkpt lat="43.61672" lon="7.04185">
        <ele>114</ele>
        <time>2016-06-15T06:33:23Z</time>
      </trkpt>
      <trkpt lat="43.61672" lon="7.04185">
        <ele>114</ele>
        <time>2016-06-15T06:33:28Z</time>
      </trkpt>
      <trkpt lat="43.61672" lon="7.04185">
        <ele>115</ele>
        <time>2016-06-15T06:33:33Z</time>
      </trkpt>
      <trkpt lat="43.61672" lon="7.04185">
        <ele>115</ele>
        <time>2016-06-15T06:33:38Z</time>
      </trkpt>
      <trkpt lat="43.61672" lon="7.04185">
        <ele>116</ele>
        <time>2016-06-15T06:33:43Z</time>
      </trkpt>
      <trkpt lat="43.61675" lon="7.0419">
        <ele>116</ele>
        <time>2016-06-15T06:33:48Z</time>
      </trkpt>
      <trkpt lat="43.61675" lon="7.0419">
        <ele>117</ele>
        <time>2016-06-15T06:33:53Z</time>
      </trkpt>
      <trkpt lat="43.61675" lon="7.0419">
        <ele>118</ele>
        <time>2016-06-15T06:33:58Z</time>
      </trkpt>
      <trkpt lat="43.61672" lon="7.04194">
        <ele>118</ele>
        <time>2016-06-15T06:34:03Z</time>
      </trkpt>
      <trkpt lat="43.61672" lon="7.04194">
        <ele>118</ele>
        <time>2016-06-15T06:34:08Z</time>
      </trkpt>
      <trkpt lat="43.61672" lon="7.04194">
        <ele>119</ele>
        <time>2016-06-15T06:34:13Z</time>
      </trkpt>
      <trkpt lat="43.61672" lon="7.04194">
        <ele>119</ele>
        <time>2016-06-15T06:34:18Z</time>
      </trkpt>
      <trkpt lat="43.61672" lon="7.04194">
        <ele>120</ele>
        <time>2016-06-15T06:34:23Z</time>
      </trkpt>
      <trkpt lat="43.61672" lon="7.04194">
        <ele>120</ele>
        <time>2016-06-15T06:34:28Z</time>
      </trkpt>
      <trkpt lat="43.61672" lon="7.04194">
        <ele>120</ele>
        <time>2016-06-15T06:34:33Z</time>
      </trkpt>
      <trkpt lat="43.61672" lon="7.04194">
        <ele>121</ele>
        <time>2016-06-15T06:34:38Z</time>
      </trkpt>
      <trkpt lat="43.61671" lon="7.04188">
        <ele>121</ele>
        <time>2016-06-15T06:34:43Z</time>
      </trkpt>
      <trkpt lat="43.61671" lon="7.04188">
        <ele>121</ele>
        <time>2016-06-15T06:34:48Z</time>
      </trkpt>
      <trkpt lat="43.61671" lon="7.04195">
        <ele>122</ele>
        <time>2016-06-15T06:34:53Z</time>
      </trkpt>
      <trkpt lat="43.61671" lon="7.04195">
        <ele>122</ele>
        <time>2016-06-15T06:34:58Z</time>
      </trkpt>
      <trkpt lat="43.61671" lon="7.04195">
        <ele>122</ele>
        <time>2016-06-15T06:35:03Z</time>
      </trkpt>
      <trkpt lat="43.61671" lon="7.04195">
        <ele>122</ele>
        <time>2016-06-15T06:35:08Z</time>
      </trkpt>
      <trkpt lat="43.61671" lon="7.04195">
        <ele>122</ele>
        <time>2016-06-15T06:35:13Z</time>
      </trkpt>
      <trkpt lat="43.61671" lon="7.04195">
        <ele>122</ele>
        <time>2016-06-15T06:35:18Z</time>
      </trkpt>
      <trkpt lat="43.61671" lon="7.04195">
        <ele>122</ele>
        <time>2016-06-15T06:35:23Z</time>
      </trkpt>
      <trkpt lat="43.61671" lon="7.04195">
        <ele>122</ele>
        <time>2016-06-15T06:35:28Z</time>
      </trkpt>
      <trkpt lat="43.61671" lon="7.04195">
        <ele>123</ele>
        <time>2016-06-15T06:35:33Z</time>
      </trkpt>
      <trkpt lat="43.61671" lon="7.04195">
        <ele>123</ele>
        <time>2016-06-15T06:35:38Z</time>
      </trkpt>
      <trkpt lat="43.61667" lon="7.04191">
        <ele>123</ele>
        <time>2016-06-15T06:35:43Z</time>
      </trkpt>
      <trkpt lat="43.61665" lon="7.04184">
        <ele>123</ele>
        <time>2016-06-15T06:35:48Z</time>
      </trkpt>
      <trkpt lat="43.61664" lon="7.04177">
        <ele>123</ele>
        <time>2016-06-15T06:35:53Z</time>
      </trkpt>
      <trkpt lat="43.61664" lon="7.04177">
        <ele>123</ele>
        <time>2016-06-15T06:35:58Z</time>
      </trkpt>
      <trkpt lat="43.61664" lon="7.04177">
        <ele>123</ele>
        <time>2016-06-15T06:36:03Z</time>
      </trkpt>
      <trkpt lat="43.61664" lon="7.04177">
        <ele>123</ele>
        <time>2016-06-15T06:36:08Z</time>
      </trkpt>
      <trkpt lat="43.61664" lon="7.04177">
        <ele>123</ele>
        <time>2016-06-15T06:36:13Z</time>
      </trkpt>
      <trkpt lat="43.61664" lon="7.04177">
        <ele>123</ele>
        <time>2016-06-15T06:36:18Z</time>
      </trkpt>
      <trkpt lat="43.61664" lon="7.04177">
        <ele>124</ele>
        <time>2016-06-15T06:36:23Z</time>
      </trkpt>
      <trkpt lat="43.61664" lon="7.04177">
        <ele>124</ele>
        <time>2016-06-15T06:36:28Z</time>
      </trkpt>
      <trkpt lat="43.61664" lon="7.04177">
        <ele>124</ele>
        <time>2016-06-15T06:36:33Z</time>
      </trkpt>
      <trkpt lat="43.61664" lon="7.04177">
        <ele>124</ele>
        <time>2016-06-15T06:36:38Z</time>
      </trkpt>
      <trkpt lat="43.61664" lon="7.04177">
        <ele>124</ele>
        <time>2016-06-15T06:36:43Z</time>
      </trkpt>
      <trkpt lat="43.61664" lon="7.04177">
        <ele>125</ele>
        <time>2016-06-15T06:36:48Z</time>
      </trkpt>
      <trkpt lat="43.61664" lon="7.04177">
        <ele>125</ele>
        <time>2016-06-15T06:36:53Z</time>
      </trkpt>
      <trkpt lat="43.61664" lon="7.04177">
        <ele>125</ele>
        <time>2016-06-15T06:36:58Z</time>
      </trkpt>
      <trkpt lat="43.61664" lon="7.04177">
        <ele>125</ele>
        <time>2016-06-15T06:37:03Z</time>
      </trkpt>
      <trkpt lat="43.61664" lon="7.04177">
        <ele>126</ele>
        <time>2016-06-15T06:37:08Z</time>
      </trkpt>
      <trkpt lat="43.61664" lon="7.04177">
        <ele>126</ele>
        <time>2016-06-15T06:37:13Z</time>
      </trkpt>
      <trkpt lat="43.61664" lon="7.04177">
        <ele>126</ele>
        <time>2016-06-15T06:37:18Z</time>
      </trkpt>
      <trkpt lat="43.61664" lon="7.04177">
        <ele>126</ele>
        <time>2016-06-15T06:37:23Z</time>
      </trkpt>
      <trkpt lat="43.61664" lon="7.04177">
        <ele>127</ele>
        <time>2016-06-15T06:37:28Z</time>
      </trkpt>
      <trkpt lat="43.61664" lon="7.04177">
        <ele>127</ele>
        <time>2016-06-15T06:37:33Z</time>
      </trkpt>
      <trkpt lat="43.61664" lon="7.04177">
        <ele>127</ele>
        <time>2016-06-15T06:37:38Z</time>
      </trkpt>
      <trkpt lat="43.61664" lon="7.04177">
        <ele>127</ele>
        <time>2016-06-15T06:37:43Z</time>
      </trkpt>
      <trkpt lat="43.61664" lon="7.04177">
        <ele>128</ele>
        <time>2016-06-15T06:37:48Z</time>
      </trkpt>
      <trkpt lat="43.61664" lon="7.04177">
        <ele>128</ele>
        <time>2016-06-15T06:37:53Z</time>
      </trkpt>
      <trkpt lat="43.61664" lon="7.04177">
        <ele>128</ele>
        <time>2016-06-15T06:37:58Z</time>
      </trkpt>
      <trkpt lat="43.61664" lon="7.04184">
        <ele>128</ele>
        <time>2016-06-15T06:38:03Z</time>
      </trkpt>
      <trkpt lat="43.61665" lon="7.04193">
        <ele>128</ele>
        <time>2016-06-15T06:38:08Z</time>
      </trkpt>
      <trkpt lat="43.61668" lon="7.04198">
        <ele>128</ele>
        <time>2016-06-15T06:38:13Z</time>
      </trkpt>
      <trkpt lat="43.61668" lon="7.04198">
        <ele>128</ele>
        <time>2016-06-15T06:38:18Z</time>
      </trkpt>
      <trkpt lat="43.61668" lon="7.04198">
        <ele>128</ele>
        <time>2016-06-15T06:38:23Z</time>
      </trkpt>
      <trkpt lat="43.61668" lon="7.04198">
        <ele>129</ele>
        <time>2016-06-15T06:38:28Z</time>
      </trkpt>
      <trkpt lat="43.61668" lon="7.04198">
        <ele>129</ele>
        <time>2016-06-15T06:38:33Z</time>
      </trkpt>
      <trkpt lat="43.61668" lon="7.04198">
        <ele>129</ele>
        <time>2016-06-15T06:38:38Z</time>
      </trkpt>
      <trkpt lat="43.61668" lon="7.04198">
        <ele>129</ele>
        <time>2016-06-15T06:38:43Z</time>
      </trkpt>
      <trkpt lat="43.61668" lon="7.04198">
        <ele>129</ele>
        <time>2016-06-15T06:38:48Z</time>
      </trkpt>
      <trkpt lat="43.61668" lon="7.04198">
        <ele>129</ele>
        <time>2016-06-15T06:38:53Z</time>
      </trkpt>
      <trkpt lat="43.61668" lon="7.04198">
        <ele>129</ele>
        <time>2016-06-15T06:38:58Z</time>
      </trkpt>
      <trkpt lat="43.61668" lon="7.04198">
        <ele>129</ele>
        <time>2016-06-15T06:39:03Z</time>
      </trkpt>
      <trkpt lat="43.61668" lon="7.04198">
        <ele>129</ele>
        <time>2016-06-15T06:39:08Z</time>
      </trkpt>
      <trkpt lat="43.61668" lon="7.04198">
        <ele>129</ele>
        <time>2016-06-15T06:39:13Z</time>
      </trkpt>
      <trkpt lat="43.61668" lon="7.04198">
        <ele>129</ele>
        <time>2016-06-15T06:39:18Z</time>
      </trkpt>
      <trkpt lat="43.61668" lon="7.04198">
        <ele>129</ele>
        <time>2016-06-15T06:39:23Z</time>
      </trkpt>
      <trkpt lat="43.61665" lon="7.04192">
        <ele>129</ele>
        <time>2016-06-15T06:39:28Z</time>
      </trkpt>
      <trkpt lat="43.61665" lon="7.04192">
        <ele>129</ele>
        <time>2016-06-15T06:39:33Z</time>
      </trkpt>
      <trkpt lat="43.61665" lon="7.04192">
        <ele>129</ele>
        <time>2016-06-15T06:39:38Z</time>
      </trkpt>
      <trkpt lat="43.61665" lon="7.04192">
        <ele>129</ele>
        <time>2016-06-15T06:39:43Z</time>
      </trkpt>
      <trkpt lat="43.61665" lon="7.04192">
        <ele>129</ele>
        <time>2016-06-15T06:39:48Z</time>
      </trkpt>
      <trkpt lat="43.61665" lon="7.04192">
        <ele>129</ele>
        <time>2016-06-15T06:39:53Z</time>
      </trkpt>
      <trkpt lat="43.61665" lon="7.04192">
        <ele>129</ele>
        <time>2016-06-15T06:39:58Z</time>
      </trkpt>
      <trkpt lat="43.61665" lon="7.04192">
        <ele>129</ele>
        <time>2016-06-15T06:40:03Z</time>
      </trkpt>
      <trkpt lat="43.61665" lon="7.04192">
        <ele>130</ele>
        <time>2016-06-15T06:40:08Z</time>
      </trkpt>
      <trkpt lat="43.61665" lon="7.04192">
        <ele>130</ele>
        <time>2016-06-15T06:40:13Z</time>
      </trkpt>
      <trkpt lat="43.61665" lon="7.04192">
        <ele>130</ele>
        <time>2016-06-15T06:40:18Z</time>
      </trkpt>
      <trkpt lat="43.61665" lon="7.04192">
        <ele>130</ele>
        <time>2016-06-15T06:40:23Z</time>
      </trkpt>
      <trkpt lat="43.61665" lon="7.04192">
        <ele>130</ele>
        <time>2016-06-15T06:40:28Z</time>
      </trkpt>
      <trkpt lat="43.6167" lon="7.04192">
        <ele>130</ele>
        <time>2016-06-15T06:40:33Z</time>
      </trkpt>
      <trkpt lat="43.6167" lon="7.04192">
        <ele>130</ele>
        <time>2016-06-15T06:40:38Z</time>
      </trkpt>
      <trkpt lat="43.6167" lon="7.04192">
        <ele>130</ele>
        <time>2016-06-15T06:40:43Z</time>
      </trkpt>
      <trkpt lat="43.6167" lon="7.04192">
        <ele>130</ele>
        <time>2016-06-15T06:40:48Z</time>
      </trkpt>
      <trkpt lat="43.6167" lon="7.04192">
        <ele>130</ele>
        <time>2016-06-15T06:40:53Z</time>
      </trkpt>
      <trkpt lat="43.6167" lon="7.04192">
        <ele>130</ele>
        <time>2016-06-15T06:40:58Z</time>
      </trkpt>
      <trkpt lat="43.6167" lon="7.04192">
        <ele>130</ele>
        <time>2016-06-15T06:41:03Z</time>
      </trkpt>
      <trkpt lat="43.6167" lon="7.04192">
        <ele>130</ele>
        <time>2016-06-15T06:41:08Z</time>
      </trkpt>
      <trkpt lat="43.6167" lon="7.04192">
        <ele>130</ele>
        <time>2016-06-15T06:41:13Z</time>
      </trkpt>
      <trkpt lat="43.6167" lon="7.04192">
        <ele>130</ele>
        <time>2016-06-15T06:41:18Z</time>
      </trkpt>
      <trkpt lat="43.6167" lon="7.04192">
        <ele>130</ele>
        <time>2016-06-15T06:41:23Z</time>
      </trkpt>
      <trkpt lat="43.6167" lon="7.04192">
        <ele>130</ele>
        <time>2016-06-15T06:41:28Z</time>
      </trkpt>
      <trkpt lat="43.6167" lon="7.04192">
        <ele>130</ele>
        <time>2016-06-15T06:41:33Z</time>
      </trkpt>
      <trkpt lat="43.6167" lon="7.04192">
        <ele>130</ele>
        <time>2016-06-15T06:41:38Z</time>
      </trkpt>
      <trkpt lat="43.6167" lon="7.04192">
        <ele>130</ele>
        <time>2016-06-15T06:41:43Z</time>
      </trkpt>
      <trkpt lat="43.6167" lon="7.04192">
        <ele>130</ele>
        <time>2016-06-15T06:41:48Z</time>
      </trkpt>
      <trkpt lat="43.6167" lon="7.04192">
        <ele>130</ele>
        <time>2016-06-15T06:41:53Z</time>
      </trkpt>
      <trkpt lat="43.6167" lon="7.04192">
        <ele>130</ele>
        <time>2016-06-15T06:41:58Z</time>
      </trkpt>
      <trkpt lat="43.6167" lon="7.04192">
        <ele>130</ele>
        <time>2016-06-15T06:42:03Z</time>
      </trkpt>
      <trkpt lat="43.6167" lon="7.04192">
        <ele>130</ele>
        <time>2016-06-15T06:42:08Z</time>
      </trkpt>
      <trkpt lat="43.6167" lon="7.04192">
        <ele>130</ele>
        <time>2016-06-15T06:42:13Z</time>
      </trkpt>
      <trkpt lat="43.6167" lon="7.04192">
        <ele>130</ele>
        <time>2016-06-15T06:42:18Z</time>
      </trkpt>
      <trkpt lat="43.6167" lon="7.04192">
        <ele>130</ele>
        <time>2016-06-15T06:42:23Z</time>
      </trkpt>
      <trkpt lat="43.6167" lon="7.04192">
        <ele>130</ele>
        <time>2016-06-15T06:42:28Z</time>
      </trkpt>
      <trkpt lat="43.6167" lon="7.04192">
        <ele>130</ele>
        <time>2016-06-15T06:42:33Z</time>
      </trkpt>
      <trkpt lat="43.6167" lon="7.04192">
        <ele>130</ele>
        <time>2016-06-15T06:42:38Z</time>
      </trkpt>
      <trkpt lat="43.6167" lon="7.04192">
        <ele>130</ele>
        <time>2016-06-15T06:42:43Z</time>
      </trkpt>
      <trkpt lat="43.6167" lon="7.04192">
        <ele>130</ele>
        <time>2016-06-15T06:42:48Z</time>
      </trkpt>
      <trkpt lat="43.6167" lon="7.04192">
        <ele>130</ele>
        <time>2016-06-15T06:42:53Z</time>
      </trkpt>
      <trkpt lat="43.6167" lon="7.04192">
        <ele>130</ele>
        <time>2016-06-15T06:42:58Z</time>
      </trkpt>
      <trkpt lat="43.6167" lon="7.04192">
        <ele>130</ele>
        <time>2016-06-15T06:43:03Z</time>
      </trkpt>
      <trkpt lat="43.6167" lon="7.04192">
        <ele>130</ele>
        <time>2016-06-15T06:43:08Z</time>
      </trkpt>
      <trkpt lat="43.61675" lon="7.04194">
        <ele>130</ele>
        <time>2016-06-15T06:43:13Z</time>
      </trkpt>
      <trkpt lat="43.61675" lon="7.04194">
        <ele>130</ele>
        <time>2016-06-15T06:43:18Z</time>
      </trkpt>
      <trkpt lat="43.61675" lon="7.04194">
        <ele>130</ele>
        <time>2016-06-15T06:43:23Z</time>
      </trkpt>
      <trkpt lat="43.61675" lon="7.04194">
        <ele>130</ele>
        <time>2016-06-15T06:43:28Z</time>
      </trkpt>
      <trkpt lat="43.61675" lon="7.04194">
        <ele>130</ele>
        <time>2016-06-15T06:43:33Z</time>
      </trkpt>
      <trkpt lat="43.61675" lon="7.04194">
        <ele>130</ele>
        <time>2016-06-15T06:43:38Z</time>
      </trkpt>
      <trkpt lat="43.61675" lon="7.04194">
        <ele>130</ele>
        <time>2016-06-15T06:43:43Z</time>
      </trkpt>
      <trkpt lat="43.61675" lon="7.04194">
        <ele>130</ele>
        <time>2016-06-15T06:43:48Z</time>
      </trkpt>
      <trkpt lat="43.61675" lon="7.04194">
        <ele>130</ele>
        <time>2016-06-15T06:43:53Z</time>
      </trkpt>
      <trkpt lat="43.61675" lon="7.04194">
        <ele>130</ele>
        <time>2016-06-15T06:43:58Z</time>
      </trkpt>
      <trkpt lat="43.61676" lon="7.0419">
        <ele>130</ele>
        <time>2016-06-15T06:44:03Z</time>
      </trkpt>
    </trkseg>
  </trk>
</gpx>